<?xml version="1.0" encoding="UTF-8" standalone="no" ?>
<gpx xmlns="http://www.topografix.com/GPX/1/1" xmlns:xsi="http://www.w3.org/2001/XMLSchema-instance" xsi:schemaLocation="http://www.topografix.com/GPX/1/1 http://www.topografix.com/GPX/1/1/gpx.xsd" version="1.1" creator="VisuGPX - https://www.visugpx.com">
  <metadata>
    <name>balade à la plage   festival</name>
    <desc><![CDATA[balade à l\'océan puis festoch\' au dessus de saintes]]></desc>
  </metadata>
  <trk>
    <name><![CDATA[Tracé 001]]></name>
    <trkseg>
      <trkpt lat="45.65352" lon="0.16471">
        <ele>38.59</ele>
        <time>2013-07-21T10:12:43Z</time>
      </trkpt>
      <trkpt lat="45.65351" lon="0.16471">
        <ele>38.59</ele>
        <time>2013-07-21T10:12:44Z</time>
      </trkpt>
      <trkpt lat="45.65345" lon="0.16499">
        <ele>41.47</ele>
        <time>2013-07-21T10:12:59Z</time>
      </trkpt>
      <trkpt lat="45.65344" lon="0.16503">
        <ele>44.84</ele>
        <time>2013-07-21T10:13:12Z</time>
      </trkpt>
      <trkpt lat="45.65348" lon="0.16482">
        <ele>48.2</ele>
        <time>2013-07-21T10:13:26Z</time>
      </trkpt>
      <trkpt lat="45.65348" lon="0.16482">
        <ele>48.2</ele>
        <time>2013-07-21T10:13:29Z</time>
      </trkpt>
      <trkpt lat="45.65343" lon="0.1648">
        <ele>48.2</ele>
        <time>2013-07-21T10:13:34Z</time>
      </trkpt>
      <trkpt lat="45.65317" lon="0.16479">
        <ele>49.65</ele>
        <time>2013-07-21T10:13:46Z</time>
      </trkpt>
      <trkpt lat="45.65313" lon="0.16479">
        <ele>49.65</ele>
        <time>2013-07-21T10:13:47Z</time>
      </trkpt>
      <trkpt lat="45.6531" lon="0.16476">
        <ele>49.65</ele>
        <time>2013-07-21T10:13:48Z</time>
      </trkpt>
      <trkpt lat="45.65277" lon="0.16417">
        <ele>52.05</ele>
        <time>2013-07-21T10:14:02Z</time>
      </trkpt>
      <trkpt lat="45.65243" lon="0.16364">
        <ele>55.41</ele>
        <time>2013-07-21T10:14:16Z</time>
      </trkpt>
      <trkpt lat="45.65199" lon="0.16304">
        <ele>58.3</ele>
        <time>2013-07-21T10:14:33Z</time>
      </trkpt>
      <trkpt lat="45.65185" lon="0.16295">
        <ele>59.26</ele>
        <time>2013-07-21T10:14:38Z</time>
      </trkpt>
      <trkpt lat="45.65182" lon="0.16297">
        <ele>59.74</ele>
        <time>2013-07-21T10:14:39Z</time>
      </trkpt>
      <trkpt lat="45.65179" lon="0.163">
        <ele>60.22</ele>
        <time>2013-07-21T10:14:40Z</time>
      </trkpt>
      <trkpt lat="45.65177" lon="0.16304">
        <ele>60.22</ele>
        <time>2013-07-21T10:14:41Z</time>
      </trkpt>
      <trkpt lat="45.65175" lon="0.16309">
        <ele>60.22</ele>
        <time>2013-07-21T10:14:42Z</time>
      </trkpt>
      <trkpt lat="45.65159" lon="0.16377">
        <ele>62.14</ele>
        <time>2013-07-21T10:14:55Z</time>
      </trkpt>
      <trkpt lat="45.65147" lon="0.16438">
        <ele>64.55</ele>
        <time>2013-07-21T10:15:06Z</time>
      </trkpt>
      <trkpt lat="45.6513" lon="0.16528">
        <ele>66.47</ele>
        <time>2013-07-21T10:15:22Z</time>
      </trkpt>
      <trkpt lat="45.65125" lon="0.16558">
        <ele>67.43</ele>
        <time>2013-07-21T10:15:27Z</time>
      </trkpt>
      <trkpt lat="45.65119" lon="0.16598">
        <ele>68.39</ele>
        <time>2013-07-21T10:15:34Z</time>
      </trkpt>
      <trkpt lat="45.65118" lon="0.16604">
        <ele>68.39</ele>
        <time>2013-07-21T10:15:35Z</time>
      </trkpt>
      <trkpt lat="45.65119" lon="0.16647">
        <ele>69.83</ele>
        <time>2013-07-21T10:15:42Z</time>
      </trkpt>
      <trkpt lat="45.65118" lon="0.16658">
        <ele>69.83</ele>
        <time>2013-07-21T10:15:44Z</time>
      </trkpt>
      <trkpt lat="45.65118" lon="0.1673">
        <ele>72.24</ele>
        <time>2013-07-21T10:15:56Z</time>
      </trkpt>
      <trkpt lat="45.65118" lon="0.16742">
        <ele>72.72</ele>
        <time>2013-07-21T10:15:58Z</time>
      </trkpt>
      <trkpt lat="45.65117" lon="0.1684">
        <ele>75.12</ele>
        <time>2013-07-21T10:16:15Z</time>
      </trkpt>
      <trkpt lat="45.65116" lon="0.1694">
        <ele>77.52</ele>
        <time>2013-07-21T10:16:30Z</time>
      </trkpt>
      <trkpt lat="45.65116" lon="0.17027">
        <ele>79.45</ele>
        <time>2013-07-21T10:16:43Z</time>
      </trkpt>
      <trkpt lat="45.65116" lon="0.17033">
        <ele>79.93</ele>
        <time>2013-07-21T10:16:44Z</time>
      </trkpt>
      <trkpt lat="45.65115" lon="0.1704">
        <ele>79.93</ele>
        <time>2013-07-21T10:16:45Z</time>
      </trkpt>
      <trkpt lat="45.65108" lon="0.1709">
        <ele>80.89</ele>
        <time>2013-07-21T10:16:53Z</time>
      </trkpt>
      <trkpt lat="45.65065" lon="0.17179">
        <ele>83.29</ele>
        <time>2013-07-21T10:17:10Z</time>
      </trkpt>
      <trkpt lat="45.65018" lon="0.17256">
        <ele>86.18</ele>
        <time>2013-07-21T10:17:27Z</time>
      </trkpt>
      <trkpt lat="45.64974" lon="0.17325">
        <ele>89.54</ele>
        <time>2013-07-21T10:17:43Z</time>
      </trkpt>
      <trkpt lat="45.64927" lon="0.1737">
        <ele>90.02</ele>
        <time>2013-07-21T10:17:58Z</time>
      </trkpt>
      <trkpt lat="45.64922" lon="0.17369">
        <ele>90.5</ele>
        <time>2013-07-21T10:18:00Z</time>
      </trkpt>
      <trkpt lat="45.64909" lon="0.17363">
        <ele>91.46</ele>
        <time>2013-07-21T10:18:04Z</time>
      </trkpt>
      <trkpt lat="45.64905" lon="0.17362">
        <ele>91.46</ele>
        <time>2013-07-21T10:18:05Z</time>
      </trkpt>
      <trkpt lat="45.649" lon="0.17362">
        <ele>91.46</ele>
        <time>2013-07-21T10:18:06Z</time>
      </trkpt>
      <trkpt lat="45.64886" lon="0.17364">
        <ele>91.46</ele>
        <time>2013-07-21T10:18:09Z</time>
      </trkpt>
      <trkpt lat="45.64881" lon="0.17364">
        <ele>91.94</ele>
        <time>2013-07-21T10:18:10Z</time>
      </trkpt>
      <trkpt lat="45.64876" lon="0.17364">
        <ele>91.46</ele>
        <time>2013-07-21T10:18:11Z</time>
      </trkpt>
      <trkpt lat="45.64871" lon="0.17363">
        <ele>91.46</ele>
        <time>2013-07-21T10:18:12Z</time>
      </trkpt>
      <trkpt lat="45.64866" lon="0.17361">
        <ele>91.46</ele>
        <time>2013-07-21T10:18:13Z</time>
      </trkpt>
      <trkpt lat="45.64783" lon="0.1733">
        <ele>92.9</ele>
        <time>2013-07-21T10:18:30Z</time>
      </trkpt>
      <trkpt lat="45.64711" lon="0.17302">
        <ele>94.35</ele>
        <time>2013-07-21T10:18:45Z</time>
      </trkpt>
      <trkpt lat="45.64667" lon="0.17287">
        <ele>93.87</ele>
        <time>2013-07-21T10:19:00Z</time>
      </trkpt>
      <trkpt lat="45.64666" lon="0.17284">
        <ele>93.39</ele>
        <time>2013-07-21T10:19:14Z</time>
      </trkpt>
      <trkpt lat="45.64652" lon="0.17276">
        <ele>94.35</ele>
        <time>2013-07-21T10:19:31Z</time>
      </trkpt>
      <trkpt lat="45.64605" lon="0.17253">
        <ele>96.27</ele>
        <time>2013-07-21T10:19:42Z</time>
      </trkpt>
      <trkpt lat="45.646" lon="0.17253">
        <ele>96.27</ele>
        <time>2013-07-21T10:19:43Z</time>
      </trkpt>
      <trkpt lat="45.64596" lon="0.17253">
        <ele>96.27</ele>
        <time>2013-07-21T10:19:44Z</time>
      </trkpt>
      <trkpt lat="45.64592" lon="0.17255">
        <ele>96.75</ele>
        <time>2013-07-21T10:19:45Z</time>
      </trkpt>
      <trkpt lat="45.64588" lon="0.17258">
        <ele>97.23</ele>
        <time>2013-07-21T10:19:46Z</time>
      </trkpt>
      <trkpt lat="45.64584" lon="0.17262">
        <ele>97.23</ele>
        <time>2013-07-21T10:19:47Z</time>
      </trkpt>
      <trkpt lat="45.64581" lon="0.17266">
        <ele>97.71</ele>
        <time>2013-07-21T10:19:48Z</time>
      </trkpt>
      <trkpt lat="45.64578" lon="0.17272">
        <ele>97.23</ele>
        <time>2013-07-21T10:19:49Z</time>
      </trkpt>
      <trkpt lat="45.64576" lon="0.17278">
        <ele>97.71</ele>
        <time>2013-07-21T10:19:50Z</time>
      </trkpt>
      <trkpt lat="45.64573" lon="0.17284">
        <ele>97.71</ele>
        <time>2013-07-21T10:19:51Z</time>
      </trkpt>
      <trkpt lat="45.64571" lon="0.1729">
        <ele>97.71</ele>
        <time>2013-07-21T10:19:52Z</time>
      </trkpt>
      <trkpt lat="45.64569" lon="0.17296">
        <ele>97.71</ele>
        <time>2013-07-21T10:19:53Z</time>
      </trkpt>
      <trkpt lat="45.64567" lon="0.17303">
        <ele>97.71</ele>
        <time>2013-07-21T10:19:54Z</time>
      </trkpt>
      <trkpt lat="45.64565" lon="0.1731">
        <ele>97.71</ele>
        <time>2013-07-21T10:19:55Z</time>
      </trkpt>
      <trkpt lat="45.64564" lon="0.17317">
        <ele>97.71</ele>
        <time>2013-07-21T10:19:56Z</time>
      </trkpt>
      <trkpt lat="45.64562" lon="0.17324">
        <ele>98.19</ele>
        <time>2013-07-21T10:19:57Z</time>
      </trkpt>
      <trkpt lat="45.64536" lon="0.17435">
        <ele>99.63</ele>
        <time>2013-07-21T10:20:13Z</time>
      </trkpt>
      <trkpt lat="45.64534" lon="0.17442">
        <ele>99.63</ele>
        <time>2013-07-21T10:20:14Z</time>
      </trkpt>
      <trkpt lat="45.64517" lon="0.17512">
        <ele>100.11</ele>
        <time>2013-07-21T10:20:27Z</time>
      </trkpt>
      <trkpt lat="45.64505" lon="0.17563">
        <ele>101.08</ele>
        <time>2013-07-21T10:20:37Z</time>
      </trkpt>
      <trkpt lat="45.64478" lon="0.17678">
        <ele>103.96</ele>
        <time>2013-07-21T10:20:55Z</time>
      </trkpt>
      <trkpt lat="45.6447" lon="0.17715">
        <ele>104.44</ele>
        <time>2013-07-21T10:21:01Z</time>
      </trkpt>
      <trkpt lat="45.64459" lon="0.17763">
        <ele>105.88</ele>
        <time>2013-07-21T10:21:09Z</time>
      </trkpt>
      <trkpt lat="45.64458" lon="0.17769">
        <ele>105.88</ele>
        <time>2013-07-21T10:21:10Z</time>
      </trkpt>
      <trkpt lat="45.64453" lon="0.17785">
        <ele>106.84</ele>
        <time>2013-07-21T10:21:13Z</time>
      </trkpt>
      <trkpt lat="45.64451" lon="0.17791">
        <ele>106.84</ele>
        <time>2013-07-21T10:21:14Z</time>
      </trkpt>
      <trkpt lat="45.64432" lon="0.1787">
        <ele>109.73</ele>
        <time>2013-07-21T10:21:29Z</time>
      </trkpt>
      <trkpt lat="45.64447" lon="0.17906">
        <ele>110.69</ele>
        <time>2013-07-21T10:21:38Z</time>
      </trkpt>
      <trkpt lat="45.64482" lon="0.17919">
        <ele>111.17</ele>
        <time>2013-07-21T10:21:47Z</time>
      </trkpt>
      <trkpt lat="45.64485" lon="0.17923">
        <ele>110.69</ele>
        <time>2013-07-21T10:21:48Z</time>
      </trkpt>
      <trkpt lat="45.64487" lon="0.17928">
        <ele>111.17</ele>
        <time>2013-07-21T10:21:49Z</time>
      </trkpt>
      <trkpt lat="45.64487" lon="0.17933">
        <ele>111.65</ele>
        <time>2013-07-21T10:21:50Z</time>
      </trkpt>
      <trkpt lat="45.64486" lon="0.17939">
        <ele>111.65</ele>
        <time>2013-07-21T10:21:51Z</time>
      </trkpt>
      <trkpt lat="45.64484" lon="0.17945">
        <ele>112.13</ele>
        <time>2013-07-21T10:21:52Z</time>
      </trkpt>
      <trkpt lat="45.64483" lon="0.1795">
        <ele>112.13</ele>
        <time>2013-07-21T10:21:53Z</time>
      </trkpt>
      <trkpt lat="45.64481" lon="0.17956">
        <ele>112.13</ele>
        <time>2013-07-21T10:21:54Z</time>
      </trkpt>
      <trkpt lat="45.64461" lon="0.18042">
        <ele>115.01</ele>
        <time>2013-07-21T10:22:09Z</time>
      </trkpt>
      <trkpt lat="45.64447" lon="0.18114">
        <ele>117.9</ele>
        <time>2013-07-21T10:22:22Z</time>
      </trkpt>
      <trkpt lat="45.64446" lon="0.18119">
        <ele>118.38</ele>
        <time>2013-07-21T10:22:23Z</time>
      </trkpt>
      <trkpt lat="45.64439" lon="0.18134">
        <ele>118.86</ele>
        <time>2013-07-21T10:22:26Z</time>
      </trkpt>
      <trkpt lat="45.64427" lon="0.18177">
        <ele>120.3</ele>
        <time>2013-07-21T10:22:34Z</time>
      </trkpt>
      <trkpt lat="45.64425" lon="0.18183">
        <ele>120.3</ele>
        <time>2013-07-21T10:22:35Z</time>
      </trkpt>
      <trkpt lat="45.64404" lon="0.18268">
        <ele>123.19</ele>
        <time>2013-07-21T10:22:50Z</time>
      </trkpt>
      <trkpt lat="45.64399" lon="0.18285">
        <ele>123.67</ele>
        <time>2013-07-21T10:22:53Z</time>
      </trkpt>
      <trkpt lat="45.64398" lon="0.1829">
        <ele>123.67</ele>
        <time>2013-07-21T10:22:54Z</time>
      </trkpt>
      <trkpt lat="45.64375" lon="0.18391">
        <ele>126.55</ele>
        <time>2013-07-21T10:23:12Z</time>
      </trkpt>
      <trkpt lat="45.64362" lon="0.18451">
        <ele>127.99</ele>
        <time>2013-07-21T10:23:23Z</time>
      </trkpt>
      <trkpt lat="45.64338" lon="0.18555">
        <ele>128.95</ele>
        <time>2013-07-21T10:23:40Z</time>
      </trkpt>
      <trkpt lat="45.64308" lon="0.18681">
        <ele>129.43</ele>
        <time>2013-07-21T10:23:57Z</time>
      </trkpt>
      <trkpt lat="45.64292" lon="0.18757">
        <ele>129.43</ele>
        <time>2013-07-21T10:24:10Z</time>
      </trkpt>
      <trkpt lat="45.64281" lon="0.18809">
        <ele>129.92</ele>
        <time>2013-07-21T10:24:19Z</time>
      </trkpt>
      <trkpt lat="45.64248" lon="0.18937">
        <ele>131.84</ele>
        <time>2013-07-21T10:24:37Z</time>
      </trkpt>
      <trkpt lat="45.64218" lon="0.19064">
        <ele>133.28</ele>
        <time>2013-07-21T10:24:55Z</time>
      </trkpt>
      <trkpt lat="45.64193" lon="0.19174">
        <ele>133.76</ele>
        <time>2013-07-21T10:25:11Z</time>
      </trkpt>
      <trkpt lat="45.64164" lon="0.19284">
        <ele>133.28</ele>
        <time>2013-07-21T10:25:26Z</time>
      </trkpt>
      <trkpt lat="45.6415" lon="0.19345">
        <ele>133.76</ele>
        <time>2013-07-21T10:25:34Z</time>
      </trkpt>
      <trkpt lat="45.64115" lon="0.1949">
        <ele>134.72</ele>
        <time>2013-07-21T10:25:53Z</time>
      </trkpt>
      <trkpt lat="45.64087" lon="0.19597">
        <ele>135.68</ele>
        <time>2013-07-21T10:26:08Z</time>
      </trkpt>
      <trkpt lat="45.64056" lon="0.19718">
        <ele>134.24</ele>
        <time>2013-07-21T10:26:25Z</time>
      </trkpt>
      <trkpt lat="45.64024" lon="0.19823">
        <ele>133.28</ele>
        <time>2013-07-21T10:26:40Z</time>
      </trkpt>
      <trkpt lat="45.63976" lon="0.19954">
        <ele>131.36</ele>
        <time>2013-07-21T10:26:55Z</time>
      </trkpt>
      <trkpt lat="45.63942" lon="0.20034">
        <ele>128.47</ele>
        <time>2013-07-21T10:27:04Z</time>
      </trkpt>
      <trkpt lat="45.63881" lon="0.20173">
        <ele>127.03</ele>
        <time>2013-07-21T10:27:20Z</time>
      </trkpt>
      <trkpt lat="45.63844" lon="0.20249">
        <ele>126.55</ele>
        <time>2013-07-21T10:27:30Z</time>
      </trkpt>
      <trkpt lat="45.6383" lon="0.20267">
        <ele>126.55</ele>
        <time>2013-07-21T10:27:33Z</time>
      </trkpt>
      <trkpt lat="45.63826" lon="0.20274">
        <ele>126.55</ele>
        <time>2013-07-21T10:27:34Z</time>
      </trkpt>
      <trkpt lat="45.63824" lon="0.20282">
        <ele>126.55</ele>
        <time>2013-07-21T10:27:35Z</time>
      </trkpt>
      <trkpt lat="45.63819" lon="0.20308">
        <ele>126.55</ele>
        <time>2013-07-21T10:27:38Z</time>
      </trkpt>
      <trkpt lat="45.63817" lon="0.20316">
        <ele>127.03</ele>
        <time>2013-07-21T10:27:39Z</time>
      </trkpt>
      <trkpt lat="45.63765" lon="0.20437">
        <ele>128.95</ele>
        <time>2013-07-21T10:27:56Z</time>
      </trkpt>
      <trkpt lat="45.6371" lon="0.2056">
        <ele>130.88</ele>
        <time>2013-07-21T10:28:15Z</time>
      </trkpt>
      <trkpt lat="45.63654" lon="0.20689">
        <ele>130.88</ele>
        <time>2013-07-21T10:28:34Z</time>
      </trkpt>
      <trkpt lat="45.63587" lon="0.20839">
        <ele>129.43</ele>
        <time>2013-07-21T10:28:54Z</time>
      </trkpt>
      <trkpt lat="45.63542" lon="0.20937">
        <ele>129.43</ele>
        <time>2013-07-21T10:29:08Z</time>
      </trkpt>
      <trkpt lat="45.63535" lon="0.2095">
        <ele>129.43</ele>
        <time>2013-07-21T10:29:10Z</time>
      </trkpt>
      <trkpt lat="45.63533" lon="0.20958">
        <ele>129.43</ele>
        <time>2013-07-21T10:29:11Z</time>
      </trkpt>
      <trkpt lat="45.63532" lon="0.20966">
        <ele>129.43</ele>
        <time>2013-07-21T10:29:12Z</time>
      </trkpt>
      <trkpt lat="45.6353" lon="0.20982">
        <ele>129.43</ele>
        <time>2013-07-21T10:29:14Z</time>
      </trkpt>
      <trkpt lat="45.63528" lon="0.2099">
        <ele>129.43</ele>
        <time>2013-07-21T10:29:15Z</time>
      </trkpt>
      <trkpt lat="45.63525" lon="0.20997">
        <ele>129.43</ele>
        <time>2013-07-21T10:29:16Z</time>
      </trkpt>
      <trkpt lat="45.63505" lon="0.2103">
        <ele>129.92</ele>
        <time>2013-07-21T10:29:21Z</time>
      </trkpt>
      <trkpt lat="45.63438" lon="0.21166">
        <ele>129.92</ele>
        <time>2013-07-21T10:29:40Z</time>
      </trkpt>
      <trkpt lat="45.63426" lon="0.21182">
        <ele>129.43</ele>
        <time>2013-07-21T10:29:43Z</time>
      </trkpt>
      <trkpt lat="45.63422" lon="0.21187">
        <ele>129.43</ele>
        <time>2013-07-21T10:29:44Z</time>
      </trkpt>
      <trkpt lat="45.63417" lon="0.2119">
        <ele>130.4</ele>
        <time>2013-07-21T10:29:45Z</time>
      </trkpt>
      <trkpt lat="45.63412" lon="0.21191">
        <ele>129.92</ele>
        <time>2013-07-21T10:29:46Z</time>
      </trkpt>
      <trkpt lat="45.63407" lon="0.21192">
        <ele>129.43</ele>
        <time>2013-07-21T10:29:47Z</time>
      </trkpt>
      <trkpt lat="45.63401" lon="0.21191">
        <ele>129.92</ele>
        <time>2013-07-21T10:29:48Z</time>
      </trkpt>
      <trkpt lat="45.63396" lon="0.21192">
        <ele>129.43</ele>
        <time>2013-07-21T10:29:49Z</time>
      </trkpt>
      <trkpt lat="45.6339" lon="0.21193">
        <ele>129.43</ele>
        <time>2013-07-21T10:29:50Z</time>
      </trkpt>
      <trkpt lat="45.63385" lon="0.21196">
        <ele>129.92</ele>
        <time>2013-07-21T10:29:51Z</time>
      </trkpt>
      <trkpt lat="45.6338" lon="0.212">
        <ele>129.43</ele>
        <time>2013-07-21T10:29:52Z</time>
      </trkpt>
      <trkpt lat="45.63375" lon="0.21204">
        <ele>128.95</ele>
        <time>2013-07-21T10:29:53Z</time>
      </trkpt>
      <trkpt lat="45.63371" lon="0.21209">
        <ele>128.47</ele>
        <time>2013-07-21T10:29:54Z</time>
      </trkpt>
      <trkpt lat="45.63367" lon="0.21215">
        <ele>128.47</ele>
        <time>2013-07-21T10:29:55Z</time>
      </trkpt>
      <trkpt lat="45.63364" lon="0.2122">
        <ele>128.47</ele>
        <time>2013-07-21T10:29:56Z</time>
      </trkpt>
      <trkpt lat="45.63358" lon="0.21231">
        <ele>128.47</ele>
        <time>2013-07-21T10:29:58Z</time>
      </trkpt>
      <trkpt lat="45.63355" lon="0.21235">
        <ele>128.47</ele>
        <time>2013-07-21T10:29:59Z</time>
      </trkpt>
      <trkpt lat="45.63352" lon="0.21239">
        <ele>128.47</ele>
        <time>2013-07-21T10:30:00Z</time>
      </trkpt>
      <trkpt lat="45.63348" lon="0.21241">
        <ele>128.47</ele>
        <time>2013-07-21T10:30:01Z</time>
      </trkpt>
      <trkpt lat="45.63343" lon="0.21243">
        <ele>128.95</ele>
        <time>2013-07-21T10:30:02Z</time>
      </trkpt>
      <trkpt lat="45.63339" lon="0.21244">
        <ele>129.43</ele>
        <time>2013-07-21T10:30:03Z</time>
      </trkpt>
      <trkpt lat="45.63334" lon="0.21246">
        <ele>128.95</ele>
        <time>2013-07-21T10:30:04Z</time>
      </trkpt>
      <trkpt lat="45.63329" lon="0.2125">
        <ele>129.43</ele>
        <time>2013-07-21T10:30:05Z</time>
      </trkpt>
      <trkpt lat="45.63326" lon="0.21255">
        <ele>128.95</ele>
        <time>2013-07-21T10:30:06Z</time>
      </trkpt>
      <trkpt lat="45.63323" lon="0.21262">
        <ele>128.47</ele>
        <time>2013-07-21T10:30:07Z</time>
      </trkpt>
      <trkpt lat="45.63321" lon="0.21269">
        <ele>128.47</ele>
        <time>2013-07-21T10:30:08Z</time>
      </trkpt>
      <trkpt lat="45.6332" lon="0.21277">
        <ele>127.99</ele>
        <time>2013-07-21T10:30:09Z</time>
      </trkpt>
      <trkpt lat="45.63321" lon="0.21284">
        <ele>127.99</ele>
        <time>2013-07-21T10:30:10Z</time>
      </trkpt>
      <trkpt lat="45.63322" lon="0.21291">
        <ele>128.47</ele>
        <time>2013-07-21T10:30:11Z</time>
      </trkpt>
      <trkpt lat="45.63323" lon="0.21298">
        <ele>128.47</ele>
        <time>2013-07-21T10:30:12Z</time>
      </trkpt>
      <trkpt lat="45.63325" lon="0.21304">
        <ele>128.47</ele>
        <time>2013-07-21T10:30:13Z</time>
      </trkpt>
      <trkpt lat="45.63326" lon="0.21311">
        <ele>127.99</ele>
        <time>2013-07-21T10:30:14Z</time>
      </trkpt>
      <trkpt lat="45.63326" lon="0.21317">
        <ele>128.47</ele>
        <time>2013-07-21T10:30:15Z</time>
      </trkpt>
      <trkpt lat="45.63324" lon="0.21321">
        <ele>128.47</ele>
        <time>2013-07-21T10:30:16Z</time>
      </trkpt>
      <trkpt lat="45.63321" lon="0.21324">
        <ele>128.47</ele>
        <time>2013-07-21T10:30:17Z</time>
      </trkpt>
      <trkpt lat="45.63318" lon="0.21325">
        <ele>127.99</ele>
        <time>2013-07-21T10:30:18Z</time>
      </trkpt>
      <trkpt lat="45.63315" lon="0.21322">
        <ele>127.99</ele>
        <time>2013-07-21T10:30:19Z</time>
      </trkpt>
      <trkpt lat="45.63313" lon="0.21318">
        <ele>127.51</ele>
        <time>2013-07-21T10:30:20Z</time>
      </trkpt>
      <trkpt lat="45.63312" lon="0.21312">
        <ele>127.51</ele>
        <time>2013-07-21T10:30:21Z</time>
      </trkpt>
      <trkpt lat="45.63313" lon="0.21306">
        <ele>127.03</ele>
        <time>2013-07-21T10:30:22Z</time>
      </trkpt>
      <trkpt lat="45.63313" lon="0.21299">
        <ele>127.03</ele>
        <time>2013-07-21T10:30:23Z</time>
      </trkpt>
      <trkpt lat="45.63314" lon="0.21292">
        <ele>127.03</ele>
        <time>2013-07-21T10:30:24Z</time>
      </trkpt>
      <trkpt lat="45.63313" lon="0.21285">
        <ele>127.03</ele>
        <time>2013-07-21T10:30:25Z</time>
      </trkpt>
      <trkpt lat="45.63313" lon="0.21277">
        <ele>127.51</ele>
        <time>2013-07-21T10:30:26Z</time>
      </trkpt>
      <trkpt lat="45.63314" lon="0.2127">
        <ele>127.03</ele>
        <time>2013-07-21T10:30:27Z</time>
      </trkpt>
      <trkpt lat="45.63315" lon="0.21263">
        <ele>126.55</ele>
        <time>2013-07-21T10:30:28Z</time>
      </trkpt>
      <trkpt lat="45.63316" lon="0.21256">
        <ele>126.07</ele>
        <time>2013-07-21T10:30:29Z</time>
      </trkpt>
      <trkpt lat="45.63317" lon="0.2125">
        <ele>127.03</ele>
        <time>2013-07-21T10:30:30Z</time>
      </trkpt>
      <trkpt lat="45.63318" lon="0.21244">
        <ele>126.07</ele>
        <time>2013-07-21T10:30:31Z</time>
      </trkpt>
      <trkpt lat="45.63318" lon="0.2124">
        <ele>126.07</ele>
        <time>2013-07-21T10:30:32Z</time>
      </trkpt>
      <trkpt lat="45.63319" lon="0.21232">
        <ele>126.07</ele>
        <time>2013-07-21T10:30:40Z</time>
      </trkpt>
      <trkpt lat="45.63319" lon="0.21232">
        <ele>126.07</ele>
        <time>2013-07-21T10:30:41Z</time>
      </trkpt>
      <trkpt lat="45.63319" lon="0.21232">
        <ele>125.59</ele>
        <time>2013-07-21T10:48:37Z</time>
      </trkpt>
      <trkpt lat="45.6332" lon="0.21233">
        <ele>125.59</ele>
        <time>2013-07-21T10:48:43Z</time>
      </trkpt>
      <trkpt lat="45.6332" lon="0.21233">
        <ele>128.47</ele>
        <time>2013-07-21T10:48:55Z</time>
      </trkpt>
      <trkpt lat="45.63318" lon="0.21235">
        <ele>130.4</ele>
        <time>2013-07-21T10:49:13Z</time>
      </trkpt>
      <trkpt lat="45.63319" lon="0.21237">
        <ele>130.88</ele>
        <time>2013-07-21T10:49:17Z</time>
      </trkpt>
      <trkpt lat="45.63318" lon="0.21246">
        <ele>131.36</ele>
        <time>2013-07-21T10:49:21Z</time>
      </trkpt>
      <trkpt lat="45.63317" lon="0.21249">
        <ele>131.84</ele>
        <time>2013-07-21T10:49:22Z</time>
      </trkpt>
      <trkpt lat="45.63315" lon="0.21251">
        <ele>125.59</ele>
        <time>2013-07-21T10:49:23Z</time>
      </trkpt>
      <trkpt lat="45.63314" lon="0.21254">
        <ele>131.84</ele>
        <time>2013-07-21T10:49:24Z</time>
      </trkpt>
      <trkpt lat="45.63313" lon="0.21258">
        <ele>131.84</ele>
        <time>2013-07-21T10:49:25Z</time>
      </trkpt>
      <trkpt lat="45.63312" lon="0.21262">
        <ele>132.32</ele>
        <time>2013-07-21T10:49:26Z</time>
      </trkpt>
      <trkpt lat="45.63312" lon="0.21323">
        <ele>132.8</ele>
        <time>2013-07-21T10:49:39Z</time>
      </trkpt>
      <trkpt lat="45.63324" lon="0.21331">
        <ele>133.28</ele>
        <time>2013-07-21T10:49:43Z</time>
      </trkpt>
      <trkpt lat="45.63327" lon="0.2133">
        <ele>132.8</ele>
        <time>2013-07-21T10:49:44Z</time>
      </trkpt>
      <trkpt lat="45.6333" lon="0.21327">
        <ele>132.8</ele>
        <time>2013-07-21T10:49:45Z</time>
      </trkpt>
      <trkpt lat="45.63332" lon="0.21323">
        <ele>132.8</ele>
        <time>2013-07-21T10:49:46Z</time>
      </trkpt>
      <trkpt lat="45.63333" lon="0.21318">
        <ele>132.8</ele>
        <time>2013-07-21T10:49:47Z</time>
      </trkpt>
      <trkpt lat="45.63333" lon="0.21312">
        <ele>133.28</ele>
        <time>2013-07-21T10:49:48Z</time>
      </trkpt>
      <trkpt lat="45.63333" lon="0.21306">
        <ele>132.8</ele>
        <time>2013-07-21T10:49:49Z</time>
      </trkpt>
      <trkpt lat="45.63332" lon="0.21299">
        <ele>132.32</ele>
        <time>2013-07-21T10:49:50Z</time>
      </trkpt>
      <trkpt lat="45.6333" lon="0.21292">
        <ele>132.8</ele>
        <time>2013-07-21T10:49:51Z</time>
      </trkpt>
      <trkpt lat="45.6333" lon="0.21285">
        <ele>132.8</ele>
        <time>2013-07-21T10:49:52Z</time>
      </trkpt>
      <trkpt lat="45.6333" lon="0.21278">
        <ele>132.8</ele>
        <time>2013-07-21T10:49:53Z</time>
      </trkpt>
      <trkpt lat="45.63332" lon="0.21272">
        <ele>132.8</ele>
        <time>2013-07-21T10:49:54Z</time>
      </trkpt>
      <trkpt lat="45.63335" lon="0.21266">
        <ele>132.32</ele>
        <time>2013-07-21T10:49:55Z</time>
      </trkpt>
      <trkpt lat="45.63339" lon="0.21261">
        <ele>132.32</ele>
        <time>2013-07-21T10:49:56Z</time>
      </trkpt>
      <trkpt lat="45.63343" lon="0.21259">
        <ele>132.8</ele>
        <time>2013-07-21T10:49:57Z</time>
      </trkpt>
      <trkpt lat="45.63348" lon="0.21257">
        <ele>132.8</ele>
        <time>2013-07-21T10:49:58Z</time>
      </trkpt>
      <trkpt lat="45.63353" lon="0.21258">
        <ele>133.28</ele>
        <time>2013-07-21T10:49:59Z</time>
      </trkpt>
      <trkpt lat="45.63357" lon="0.2126">
        <ele>133.28</ele>
        <time>2013-07-21T10:50:00Z</time>
      </trkpt>
      <trkpt lat="45.63361" lon="0.21265">
        <ele>133.76</ele>
        <time>2013-07-21T10:50:01Z</time>
      </trkpt>
      <trkpt lat="45.63363" lon="0.2127">
        <ele>134.24</ele>
        <time>2013-07-21T10:50:02Z</time>
      </trkpt>
      <trkpt lat="45.63365" lon="0.21276">
        <ele>134.24</ele>
        <time>2013-07-21T10:50:03Z</time>
      </trkpt>
      <trkpt lat="45.63366" lon="0.21282">
        <ele>134.72</ele>
        <time>2013-07-21T10:50:04Z</time>
      </trkpt>
      <trkpt lat="45.63367" lon="0.21289">
        <ele>135.2</ele>
        <time>2013-07-21T10:50:05Z</time>
      </trkpt>
      <trkpt lat="45.63368" lon="0.21296">
        <ele>134.72</ele>
        <time>2013-07-21T10:50:06Z</time>
      </trkpt>
      <trkpt lat="45.63368" lon="0.21303">
        <ele>135.2</ele>
        <time>2013-07-21T10:50:07Z</time>
      </trkpt>
      <trkpt lat="45.63366" lon="0.21309">
        <ele>135.2</ele>
        <time>2013-07-21T10:50:08Z</time>
      </trkpt>
      <trkpt lat="45.63364" lon="0.21315">
        <ele>135.2</ele>
        <time>2013-07-21T10:50:09Z</time>
      </trkpt>
      <trkpt lat="45.63331" lon="0.21417">
        <ele>136.64</ele>
        <time>2013-07-21T10:50:25Z</time>
      </trkpt>
      <trkpt lat="45.63315" lon="0.21455">
        <ele>137.13</ele>
        <time>2013-07-21T10:50:31Z</time>
      </trkpt>
      <trkpt lat="45.63302" lon="0.21487">
        <ele>138.09</ele>
        <time>2013-07-21T10:50:36Z</time>
      </trkpt>
      <trkpt lat="45.63262" lon="0.2158">
        <ele>138.57</ele>
        <time>2013-07-21T10:50:51Z</time>
      </trkpt>
      <trkpt lat="45.63259" lon="0.21586">
        <ele>139.05</ele>
        <time>2013-07-21T10:50:52Z</time>
      </trkpt>
      <trkpt lat="45.63229" lon="0.21654">
        <ele>140.49</ele>
        <time>2013-07-21T10:51:04Z</time>
      </trkpt>
      <trkpt lat="45.6319" lon="0.21746">
        <ele>142.89</ele>
        <time>2013-07-21T10:51:21Z</time>
      </trkpt>
      <trkpt lat="45.63152" lon="0.21833">
        <ele>145.78</ele>
        <time>2013-07-21T10:51:37Z</time>
      </trkpt>
      <trkpt lat="45.63145" lon="0.21849">
        <ele>146.26</ele>
        <time>2013-07-21T10:51:40Z</time>
      </trkpt>
      <trkpt lat="45.63099" lon="0.21951">
        <ele>147.22</ele>
        <time>2013-07-21T10:51:57Z</time>
      </trkpt>
      <trkpt lat="45.63047" lon="0.22072">
        <ele>145.78</ele>
        <time>2013-07-21T10:52:11Z</time>
      </trkpt>
      <trkpt lat="45.63011" lon="0.22179">
        <ele>147.7</ele>
        <time>2013-07-21T10:52:24Z</time>
      </trkpt>
      <trkpt lat="45.62983" lon="0.22293">
        <ele>150.58</ele>
        <time>2013-07-21T10:52:42Z</time>
      </trkpt>
      <trkpt lat="45.62969" lon="0.22402">
        <ele>152.51</ele>
        <time>2013-07-21T10:52:59Z</time>
      </trkpt>
      <trkpt lat="45.6296" lon="0.22494">
        <ele>155.87</ele>
        <time>2013-07-21T10:53:14Z</time>
      </trkpt>
      <trkpt lat="45.62951" lon="0.22575">
        <ele>158.75</ele>
        <time>2013-07-21T10:53:29Z</time>
      </trkpt>
      <trkpt lat="45.62941" lon="0.22628">
        <ele>160.68</ele>
        <time>2013-07-21T10:53:39Z</time>
      </trkpt>
      <trkpt lat="45.62939" lon="0.22633">
        <ele>160.68</ele>
        <time>2013-07-21T10:53:40Z</time>
      </trkpt>
      <trkpt lat="45.62937" lon="0.22638">
        <ele>161.16</ele>
        <time>2013-07-21T10:53:41Z</time>
      </trkpt>
      <trkpt lat="45.62934" lon="0.22643">
        <ele>161.16</ele>
        <time>2013-07-21T10:53:42Z</time>
      </trkpt>
      <trkpt lat="45.62932" lon="0.22648">
        <ele>161.16</ele>
        <time>2013-07-21T10:53:43Z</time>
      </trkpt>
      <trkpt lat="45.6293" lon="0.22653">
        <ele>161.16</ele>
        <time>2013-07-21T10:53:44Z</time>
      </trkpt>
      <trkpt lat="45.62929" lon="0.22659">
        <ele>161.64</ele>
        <time>2013-07-21T10:53:45Z</time>
      </trkpt>
      <trkpt lat="45.62928" lon="0.22666">
        <ele>161.64</ele>
        <time>2013-07-21T10:53:46Z</time>
      </trkpt>
      <trkpt lat="45.62929" lon="0.22672">
        <ele>161.64</ele>
        <time>2013-07-21T10:53:47Z</time>
      </trkpt>
      <trkpt lat="45.62931" lon="0.22678">
        <ele>162.12</ele>
        <time>2013-07-21T10:53:48Z</time>
      </trkpt>
      <trkpt lat="45.62933" lon="0.22685">
        <ele>161.64</ele>
        <time>2013-07-21T10:53:49Z</time>
      </trkpt>
      <trkpt lat="45.62934" lon="0.22692">
        <ele>161.64</ele>
        <time>2013-07-21T10:53:50Z</time>
      </trkpt>
      <trkpt lat="45.62934" lon="0.227">
        <ele>161.64</ele>
        <time>2013-07-21T10:53:51Z</time>
      </trkpt>
      <trkpt lat="45.62933" lon="0.22708">
        <ele>162.12</ele>
        <time>2013-07-21T10:53:52Z</time>
      </trkpt>
      <trkpt lat="45.62924" lon="0.22812">
        <ele>163.08</ele>
        <time>2013-07-21T10:54:07Z</time>
      </trkpt>
      <trkpt lat="45.6292" lon="0.22849">
        <ele>164.52</ele>
        <time>2013-07-21T10:54:13Z</time>
      </trkpt>
      <trkpt lat="45.62907" lon="0.22936">
        <ele>167.41</ele>
        <time>2013-07-21T10:54:28Z</time>
      </trkpt>
      <trkpt lat="45.62881" lon="0.23043">
        <ele>168.85</ele>
        <time>2013-07-21T10:54:44Z</time>
      </trkpt>
      <trkpt lat="45.62846" lon="0.23169">
        <ele>169.33</ele>
        <time>2013-07-21T10:55:00Z</time>
      </trkpt>
      <trkpt lat="45.62808" lon="0.2331">
        <ele>169.33</ele>
        <time>2013-07-21T10:55:17Z</time>
      </trkpt>
      <trkpt lat="45.62773" lon="0.23441">
        <ele>167.41</ele>
        <time>2013-07-21T10:55:31Z</time>
      </trkpt>
      <trkpt lat="45.6273" lon="0.23601">
        <ele>164.52</ele>
        <time>2013-07-21T10:55:46Z</time>
      </trkpt>
      <trkpt lat="45.62705" lon="0.23695">
        <ele>161.64</ele>
        <time>2013-07-21T10:55:54Z</time>
      </trkpt>
      <trkpt lat="45.62669" lon="0.23832">
        <ele>158.27</ele>
        <time>2013-07-21T10:56:05Z</time>
      </trkpt>
      <trkpt lat="45.62645" lon="0.2392">
        <ele>154.91</ele>
        <time>2013-07-21T10:56:12Z</time>
      </trkpt>
      <trkpt lat="45.62631" lon="0.23971">
        <ele>152.99</ele>
        <time>2013-07-21T10:56:16Z</time>
      </trkpt>
      <trkpt lat="45.62581" lon="0.24159">
        <ele>152.03</ele>
        <time>2013-07-21T10:56:32Z</time>
      </trkpt>
      <trkpt lat="45.62558" lon="0.24243">
        <ele>153.95</ele>
        <time>2013-07-21T10:56:42Z</time>
      </trkpt>
      <trkpt lat="45.62556" lon="0.2425">
        <ele>153.95</ele>
        <time>2013-07-21T10:56:43Z</time>
      </trkpt>
      <trkpt lat="45.62523" lon="0.24373">
        <ele>155.87</ele>
        <time>2013-07-21T10:57:00Z</time>
      </trkpt>
      <trkpt lat="45.62496" lon="0.24471">
        <ele>152.51</ele>
        <time>2013-07-21T10:57:12Z</time>
      </trkpt>
      <trkpt lat="45.62464" lon="0.24588">
        <ele>150.1</ele>
        <time>2013-07-21T10:57:24Z</time>
      </trkpt>
      <trkpt lat="45.6246" lon="0.24597">
        <ele>150.1</ele>
        <time>2013-07-21T10:57:25Z</time>
      </trkpt>
      <trkpt lat="45.62455" lon="0.24606">
        <ele>149.14</ele>
        <time>2013-07-21T10:57:26Z</time>
      </trkpt>
      <trkpt lat="45.62446" lon="0.24623">
        <ele>148.66</ele>
        <time>2013-07-21T10:57:28Z</time>
      </trkpt>
      <trkpt lat="45.62443" lon="0.24633">
        <ele>148.18</ele>
        <time>2013-07-21T10:57:29Z</time>
      </trkpt>
      <trkpt lat="45.62442" lon="0.24643">
        <ele>147.7</ele>
        <time>2013-07-21T10:57:30Z</time>
      </trkpt>
      <trkpt lat="45.62442" lon="0.24665">
        <ele>147.22</ele>
        <time>2013-07-21T10:57:32Z</time>
      </trkpt>
      <trkpt lat="45.6244" lon="0.24676">
        <ele>147.22</ele>
        <time>2013-07-21T10:57:33Z</time>
      </trkpt>
      <trkpt lat="45.62395" lon="0.24841">
        <ele>146.26</ele>
        <time>2013-07-21T10:57:48Z</time>
      </trkpt>
      <trkpt lat="45.62337" lon="0.24987">
        <ele>143.37</ele>
        <time>2013-07-21T10:58:03Z</time>
      </trkpt>
      <trkpt lat="45.62279" lon="0.25087">
        <ele>145.3</ele>
        <time>2013-07-21T10:58:17Z</time>
      </trkpt>
      <trkpt lat="45.62267" lon="0.25106">
        <ele>144.82</ele>
        <time>2013-07-21T10:58:20Z</time>
      </trkpt>
      <trkpt lat="45.62172" lon="0.25216">
        <ele>146.26</ele>
        <time>2013-07-21T10:58:40Z</time>
      </trkpt>
      <trkpt lat="45.62087" lon="0.25313">
        <ele>146.74</ele>
        <time>2013-07-21T10:58:58Z</time>
      </trkpt>
      <trkpt lat="45.62064" lon="0.25339">
        <ele>146.26</ele>
        <time>2013-07-21T10:59:03Z</time>
      </trkpt>
      <trkpt lat="45.62053" lon="0.25347">
        <ele>146.74</ele>
        <time>2013-07-21T10:59:05Z</time>
      </trkpt>
      <trkpt lat="45.62049" lon="0.25353">
        <ele>147.22</ele>
        <time>2013-07-21T10:59:06Z</time>
      </trkpt>
      <trkpt lat="45.62046" lon="0.25359">
        <ele>147.22</ele>
        <time>2013-07-21T10:59:07Z</time>
      </trkpt>
      <trkpt lat="45.62045" lon="0.25366">
        <ele>146.74</ele>
        <time>2013-07-21T10:59:08Z</time>
      </trkpt>
      <trkpt lat="45.62046" lon="0.25372">
        <ele>146.74</ele>
        <time>2013-07-21T10:59:09Z</time>
      </trkpt>
      <trkpt lat="45.62049" lon="0.25377">
        <ele>146.74</ele>
        <time>2013-07-21T10:59:10Z</time>
      </trkpt>
      <trkpt lat="45.62052" lon="0.25382">
        <ele>146.26</ele>
        <time>2013-07-21T10:59:11Z</time>
      </trkpt>
      <trkpt lat="45.62056" lon="0.25386">
        <ele>146.26</ele>
        <time>2013-07-21T10:59:12Z</time>
      </trkpt>
      <trkpt lat="45.62062" lon="0.25397">
        <ele>145.78</ele>
        <time>2013-07-21T10:59:14Z</time>
      </trkpt>
      <trkpt lat="45.62065" lon="0.25403">
        <ele>145.78</ele>
        <time>2013-07-21T10:59:15Z</time>
      </trkpt>
      <trkpt lat="45.62084" lon="0.25461">
        <ele>143.37</ele>
        <time>2013-07-21T10:59:22Z</time>
      </trkpt>
      <trkpt lat="45.6211" lon="0.25596">
        <ele>140.49</ele>
        <time>2013-07-21T10:59:33Z</time>
      </trkpt>
      <trkpt lat="45.62118" lon="0.25659">
        <ele>137.13</ele>
        <time>2013-07-21T10:59:37Z</time>
      </trkpt>
      <trkpt lat="45.62119" lon="0.25676">
        <ele>136.64</ele>
        <time>2013-07-21T10:59:38Z</time>
      </trkpt>
      <trkpt lat="45.62115" lon="0.25763">
        <ele>133.76</ele>
        <time>2013-07-21T10:59:43Z</time>
      </trkpt>
      <trkpt lat="45.62102" lon="0.25831">
        <ele>130.4</ele>
        <time>2013-07-21T10:59:47Z</time>
      </trkpt>
      <trkpt lat="45.62082" lon="0.25897">
        <ele>127.03</ele>
        <time>2013-07-21T10:59:51Z</time>
      </trkpt>
      <trkpt lat="45.62067" lon="0.25967">
        <ele>123.67</ele>
        <time>2013-07-21T10:59:55Z</time>
      </trkpt>
      <trkpt lat="45.62056" lon="0.26043">
        <ele>119.82</ele>
        <time>2013-07-21T10:59:59Z</time>
      </trkpt>
      <trkpt lat="45.62044" lon="0.26141">
        <ele>115.98</ele>
        <time>2013-07-21T11:00:04Z</time>
      </trkpt>
      <trkpt lat="45.62033" lon="0.2622">
        <ele>112.61</ele>
        <time>2013-07-21T11:00:08Z</time>
      </trkpt>
      <trkpt lat="45.62023" lon="0.26299">
        <ele>107.81</ele>
        <time>2013-07-21T11:00:12Z</time>
      </trkpt>
      <trkpt lat="45.6202" lon="0.26319">
        <ele>108.29</ele>
        <time>2013-07-21T11:00:13Z</time>
      </trkpt>
      <trkpt lat="45.6201" lon="0.26395">
        <ele>104.44</ele>
        <time>2013-07-21T11:00:17Z</time>
      </trkpt>
      <trkpt lat="45.61985" lon="0.26591">
        <ele>104.44</ele>
        <time>2013-07-21T11:00:29Z</time>
      </trkpt>
      <trkpt lat="45.61964" lon="0.26702">
        <ele>106.84</ele>
        <time>2013-07-21T11:00:38Z</time>
      </trkpt>
      <trkpt lat="45.6192" lon="0.26865">
        <ele>104.92</ele>
        <time>2013-07-21T11:00:54Z</time>
      </trkpt>
      <trkpt lat="45.61874" lon="0.27032">
        <ele>103.48</ele>
        <time>2013-07-21T11:01:10Z</time>
      </trkpt>
      <trkpt lat="45.61843" lon="0.27147">
        <ele>100.11</ele>
        <time>2013-07-21T11:01:20Z</time>
      </trkpt>
      <trkpt lat="45.61823" lon="0.27221">
        <ele>97.23</ele>
        <time>2013-07-21T11:01:26Z</time>
      </trkpt>
      <trkpt lat="45.61775" lon="0.27373">
        <ele>98.67</ele>
        <time>2013-07-21T11:01:41Z</time>
      </trkpt>
      <trkpt lat="45.61769" lon="0.27387">
        <ele>99.63</ele>
        <time>2013-07-21T11:01:43Z</time>
      </trkpt>
      <trkpt lat="45.61743" lon="0.27453">
        <ele>102.04</ele>
        <time>2013-07-21T11:01:54Z</time>
      </trkpt>
      <trkpt lat="45.61739" lon="0.27464">
        <ele>102.52</ele>
        <time>2013-07-21T11:01:56Z</time>
      </trkpt>
      <trkpt lat="45.61708" lon="0.27538">
        <ele>105.4</ele>
        <time>2013-07-21T11:02:11Z</time>
      </trkpt>
      <trkpt lat="45.61681" lon="0.27604">
        <ele>108.77</ele>
        <time>2013-07-21T11:02:25Z</time>
      </trkpt>
      <trkpt lat="45.61662" lon="0.27661">
        <ele>111.17</ele>
        <time>2013-07-21T11:02:37Z</time>
      </trkpt>
      <trkpt lat="45.61641" lon="0.27741">
        <ele>113.57</ele>
        <time>2013-07-21T11:02:53Z</time>
      </trkpt>
      <trkpt lat="45.61633" lon="0.27772">
        <ele>113.09</ele>
        <time>2013-07-21T11:02:59Z</time>
      </trkpt>
      <trkpt lat="45.61604" lon="0.27896">
        <ele>111.65</ele>
        <time>2013-07-21T11:03:16Z</time>
      </trkpt>
      <trkpt lat="45.61575" lon="0.28011">
        <ele>110.21</ele>
        <time>2013-07-21T11:03:29Z</time>
      </trkpt>
      <trkpt lat="45.6155" lon="0.28159">
        <ele>111.65</ele>
        <time>2013-07-21T11:03:46Z</time>
      </trkpt>
      <trkpt lat="45.61544" lon="0.2825">
        <ele>112.61</ele>
        <time>2013-07-21T11:03:59Z</time>
      </trkpt>
      <trkpt lat="45.61545" lon="0.28257">
        <ele>112.13</ele>
        <time>2013-07-21T11:04:00Z</time>
      </trkpt>
      <trkpt lat="45.61545" lon="0.28264">
        <ele>111.65</ele>
        <time>2013-07-21T11:04:01Z</time>
      </trkpt>
      <trkpt lat="45.61545" lon="0.28271">
        <ele>111.65</ele>
        <time>2013-07-21T11:04:02Z</time>
      </trkpt>
      <trkpt lat="45.61545" lon="0.28278">
        <ele>111.17</ele>
        <time>2013-07-21T11:04:03Z</time>
      </trkpt>
      <trkpt lat="45.61544" lon="0.28285">
        <ele>111.17</ele>
        <time>2013-07-21T11:04:04Z</time>
      </trkpt>
      <trkpt lat="45.61544" lon="0.28292">
        <ele>111.17</ele>
        <time>2013-07-21T11:04:05Z</time>
      </trkpt>
      <trkpt lat="45.61543" lon="0.28299">
        <ele>111.17</ele>
        <time>2013-07-21T11:04:06Z</time>
      </trkpt>
      <trkpt lat="45.61544" lon="0.28335">
        <ele>110.69</ele>
        <time>2013-07-21T11:04:11Z</time>
      </trkpt>
      <trkpt lat="45.61544" lon="0.28343">
        <ele>110.69</ele>
        <time>2013-07-21T11:04:12Z</time>
      </trkpt>
      <trkpt lat="45.61544" lon="0.2835">
        <ele>110.69</ele>
        <time>2013-07-21T11:04:13Z</time>
      </trkpt>
      <trkpt lat="45.61548" lon="0.28437">
        <ele>109.25</ele>
        <time>2013-07-21T11:04:24Z</time>
      </trkpt>
      <trkpt lat="45.61557" lon="0.28601">
        <ele>105.88</ele>
        <time>2013-07-21T11:04:40Z</time>
      </trkpt>
      <trkpt lat="45.61557" lon="0.28613">
        <ele>105.88</ele>
        <time>2013-07-21T11:04:41Z</time>
      </trkpt>
      <trkpt lat="45.61552" lon="0.28702">
        <ele>102.52</ele>
        <time>2013-07-21T11:04:48Z</time>
      </trkpt>
      <trkpt lat="45.61547" lon="0.28799">
        <ele>99.15</ele>
        <time>2013-07-21T11:04:55Z</time>
      </trkpt>
      <trkpt lat="45.61543" lon="0.28871">
        <ele>96.75</ele>
        <time>2013-07-21T11:05:00Z</time>
      </trkpt>
      <trkpt lat="45.61537" lon="0.28984">
        <ele>93.39</ele>
        <time>2013-07-21T11:05:08Z</time>
      </trkpt>
      <trkpt lat="45.61535" lon="0.29024">
        <ele>91.94</ele>
        <time>2013-07-21T11:05:11Z</time>
      </trkpt>
      <trkpt lat="45.61527" lon="0.29157">
        <ele>88.58</ele>
        <time>2013-07-21T11:05:21Z</time>
      </trkpt>
      <trkpt lat="45.61524" lon="0.29215">
        <ele>87.14</ele>
        <time>2013-07-21T11:05:25Z</time>
      </trkpt>
      <trkpt lat="45.61522" lon="0.29287">
        <ele>84.73</ele>
        <time>2013-07-21T11:05:30Z</time>
      </trkpt>
      <trkpt lat="45.61519" lon="0.29312">
        <ele>84.73</ele>
        <time>2013-07-21T11:05:32Z</time>
      </trkpt>
      <trkpt lat="45.61517" lon="0.29323">
        <ele>85.21</ele>
        <time>2013-07-21T11:05:33Z</time>
      </trkpt>
      <trkpt lat="45.61512" lon="0.29342">
        <ele>85.69</ele>
        <time>2013-07-21T11:05:35Z</time>
      </trkpt>
      <trkpt lat="45.61508" lon="0.2935">
        <ele>86.18</ele>
        <time>2013-07-21T11:05:36Z</time>
      </trkpt>
      <trkpt lat="45.61504" lon="0.29356">
        <ele>87.14</ele>
        <time>2013-07-21T11:05:37Z</time>
      </trkpt>
      <trkpt lat="45.61501" lon="0.29362">
        <ele>86.66</ele>
        <time>2013-07-21T11:05:38Z</time>
      </trkpt>
      <trkpt lat="45.61497" lon="0.29367">
        <ele>87.14</ele>
        <time>2013-07-21T11:05:39Z</time>
      </trkpt>
      <trkpt lat="45.61458" lon="0.29415">
        <ele>90.02</ele>
        <time>2013-07-21T11:05:52Z</time>
      </trkpt>
      <trkpt lat="45.61423" lon="0.29463">
        <ele>93.39</ele>
        <time>2013-07-21T11:06:06Z</time>
      </trkpt>
      <trkpt lat="45.61392" lon="0.29523">
        <ele>96.27</ele>
        <time>2013-07-21T11:06:22Z</time>
      </trkpt>
      <trkpt lat="45.61369" lon="0.29572">
        <ele>99.15</ele>
        <time>2013-07-21T11:06:35Z</time>
      </trkpt>
      <trkpt lat="45.61346" lon="0.2963">
        <ele>101.56</ele>
        <time>2013-07-21T11:06:49Z</time>
      </trkpt>
      <trkpt lat="45.61323" lon="0.29691">
        <ele>104.92</ele>
        <time>2013-07-21T11:07:04Z</time>
      </trkpt>
      <trkpt lat="45.61322" lon="0.29761">
        <ele>107.81</ele>
        <time>2013-07-21T11:07:19Z</time>
      </trkpt>
      <trkpt lat="45.61333" lon="0.29827">
        <ele>110.69</ele>
        <time>2013-07-21T11:07:33Z</time>
      </trkpt>
      <trkpt lat="45.61355" lon="0.29901">
        <ele>113.57</ele>
        <time>2013-07-21T11:07:49Z</time>
      </trkpt>
      <trkpt lat="45.61393" lon="0.29967">
        <ele>116.46</ele>
        <time>2013-07-21T11:08:05Z</time>
      </trkpt>
      <trkpt lat="45.6145" lon="0.30018">
        <ele>119.34</ele>
        <time>2013-07-21T11:08:23Z</time>
      </trkpt>
      <trkpt lat="45.61504" lon="0.30053">
        <ele>122.22</ele>
        <time>2013-07-21T11:08:38Z</time>
      </trkpt>
      <trkpt lat="45.61559" lon="0.30088">
        <ele>125.59</ele>
        <time>2013-07-21T11:08:53Z</time>
      </trkpt>
      <trkpt lat="45.61582" lon="0.30103">
        <ele>126.55</ele>
        <time>2013-07-21T11:08:59Z</time>
      </trkpt>
      <trkpt lat="45.61636" lon="0.30165">
        <ele>129.43</ele>
        <time>2013-07-21T11:09:16Z</time>
      </trkpt>
      <trkpt lat="45.61646" lon="0.30187">
        <ele>129.92</ele>
        <time>2013-07-21T11:09:20Z</time>
      </trkpt>
      <trkpt lat="45.61677" lon="0.30292">
        <ele>130.4</ele>
        <time>2013-07-21T11:09:36Z</time>
      </trkpt>
      <trkpt lat="45.61711" lon="0.30427">
        <ele>130.4</ele>
        <time>2013-07-21T11:09:52Z</time>
      </trkpt>
      <trkpt lat="45.61729" lon="0.3059">
        <ele>130.88</ele>
        <time>2013-07-21T11:10:09Z</time>
      </trkpt>
      <trkpt lat="45.61742" lon="0.30647">
        <ele>130.4</ele>
        <time>2013-07-21T11:10:15Z</time>
      </trkpt>
      <trkpt lat="45.61745" lon="0.30656">
        <ele>130.4</ele>
        <time>2013-07-21T11:10:16Z</time>
      </trkpt>
      <trkpt lat="45.61793" lon="0.30774">
        <ele>128.95</ele>
        <time>2013-07-21T11:10:29Z</time>
      </trkpt>
      <trkpt lat="45.61831" lon="0.30919">
        <ele>128.95</ele>
        <time>2013-07-21T11:10:44Z</time>
      </trkpt>
      <trkpt lat="45.61844" lon="0.31003">
        <ele>132.32</ele>
        <time>2013-07-21T11:10:54Z</time>
      </trkpt>
      <trkpt lat="45.61862" lon="0.31104">
        <ele>135.68</ele>
        <time>2013-07-21T11:11:08Z</time>
      </trkpt>
      <trkpt lat="45.61872" lon="0.31171">
        <ele>137.13</ele>
        <time>2013-07-21T11:11:18Z</time>
      </trkpt>
      <trkpt lat="45.61886" lon="0.31289">
        <ele>139.53</ele>
        <time>2013-07-21T11:11:35Z</time>
      </trkpt>
      <trkpt lat="45.61889" lon="0.31402">
        <ele>137.61</ele>
        <time>2013-07-21T11:11:49Z</time>
      </trkpt>
      <trkpt lat="45.61886" lon="0.31518">
        <ele>134.72</ele>
        <time>2013-07-21T11:12:00Z</time>
      </trkpt>
      <trkpt lat="45.61892" lon="0.31677">
        <ele>136.16</ele>
        <time>2013-07-21T11:12:15Z</time>
      </trkpt>
      <trkpt lat="45.61895" lon="0.31764">
        <ele>137.61</ele>
        <time>2013-07-21T11:12:25Z</time>
      </trkpt>
      <trkpt lat="45.61901" lon="0.3191">
        <ele>140.01</ele>
        <time>2013-07-21T11:12:43Z</time>
      </trkpt>
      <trkpt lat="45.61901" lon="0.32041">
        <ele>143.37</ele>
        <time>2013-07-21T11:13:00Z</time>
      </trkpt>
      <trkpt lat="45.61898" lon="0.32054">
        <ele>143.37</ele>
        <time>2013-07-21T11:13:02Z</time>
      </trkpt>
      <trkpt lat="45.61896" lon="0.32061">
        <ele>143.37</ele>
        <time>2013-07-21T11:13:03Z</time>
      </trkpt>
      <trkpt lat="45.61894" lon="0.32067">
        <ele>143.37</ele>
        <time>2013-07-21T11:13:04Z</time>
      </trkpt>
      <trkpt lat="45.61891" lon="0.32074">
        <ele>143.85</ele>
        <time>2013-07-21T11:13:05Z</time>
      </trkpt>
      <trkpt lat="45.61887" lon="0.32079">
        <ele>144.34</ele>
        <time>2013-07-21T11:13:06Z</time>
      </trkpt>
      <trkpt lat="45.61879" lon="0.32099">
        <ele>144.34</ele>
        <time>2013-07-21T11:13:09Z</time>
      </trkpt>
      <trkpt lat="45.61877" lon="0.32106">
        <ele>144.34</ele>
        <time>2013-07-21T11:13:10Z</time>
      </trkpt>
      <trkpt lat="45.61876" lon="0.32113">
        <ele>144.34</ele>
        <time>2013-07-21T11:13:11Z</time>
      </trkpt>
      <trkpt lat="45.61876" lon="0.32121">
        <ele>144.82</ele>
        <time>2013-07-21T11:13:12Z</time>
      </trkpt>
      <trkpt lat="45.61877" lon="0.32128">
        <ele>144.34</ele>
        <time>2013-07-21T11:13:13Z</time>
      </trkpt>
      <trkpt lat="45.61878" lon="0.32136">
        <ele>144.34</ele>
        <time>2013-07-21T11:13:14Z</time>
      </trkpt>
      <trkpt lat="45.6188" lon="0.32144">
        <ele>144.82</ele>
        <time>2013-07-21T11:13:15Z</time>
      </trkpt>
      <trkpt lat="45.61918" lon="0.32264">
        <ele>144.34</ele>
        <time>2013-07-21T11:13:29Z</time>
      </trkpt>
      <trkpt lat="45.61965" lon="0.32407">
        <ele>144.34</ele>
        <time>2013-07-21T11:13:44Z</time>
      </trkpt>
      <trkpt lat="45.62007" lon="0.32543">
        <ele>147.22</ele>
        <time>2013-07-21T11:13:59Z</time>
      </trkpt>
      <trkpt lat="45.62056" lon="0.32694">
        <ele>149.14</ele>
        <time>2013-07-21T11:14:19Z</time>
      </trkpt>
      <trkpt lat="45.62094" lon="0.32803">
        <ele>147.7</ele>
        <time>2013-07-21T11:14:32Z</time>
      </trkpt>
      <trkpt lat="45.62138" lon="0.32935">
        <ele>144.82</ele>
        <time>2013-07-21T11:14:47Z</time>
      </trkpt>
      <trkpt lat="45.6219" lon="0.33094">
        <ele>141.45</ele>
        <time>2013-07-21T11:15:01Z</time>
      </trkpt>
      <trkpt lat="45.62199" lon="0.33118">
        <ele>140.49</ele>
        <time>2013-07-21T11:15:03Z</time>
      </trkpt>
      <trkpt lat="45.62233" lon="0.3322">
        <ele>137.13</ele>
        <time>2013-07-21T11:15:11Z</time>
      </trkpt>
      <trkpt lat="45.62265" lon="0.33314">
        <ele>133.76</ele>
        <time>2013-07-21T11:15:19Z</time>
      </trkpt>
      <trkpt lat="45.62269" lon="0.33326">
        <ele>133.76</ele>
        <time>2013-07-21T11:15:20Z</time>
      </trkpt>
      <trkpt lat="45.62339" lon="0.33535">
        <ele>131.36</ele>
        <time>2013-07-21T11:15:38Z</time>
      </trkpt>
      <trkpt lat="45.62391" lon="0.33692">
        <ele>130.4</ele>
        <time>2013-07-21T11:15:53Z</time>
      </trkpt>
      <trkpt lat="45.62452" lon="0.33872">
        <ele>129.92</ele>
        <time>2013-07-21T11:16:11Z</time>
      </trkpt>
      <trkpt lat="45.62512" lon="0.3405">
        <ele>129.92</ele>
        <time>2013-07-21T11:16:29Z</time>
      </trkpt>
      <trkpt lat="45.62577" lon="0.34246">
        <ele>128.47</ele>
        <time>2013-07-21T11:16:49Z</time>
      </trkpt>
      <trkpt lat="45.6265" lon="0.34462">
        <ele>125.59</ele>
        <time>2013-07-21T11:17:09Z</time>
      </trkpt>
      <trkpt lat="45.62669" lon="0.34585">
        <ele>127.03</ele>
        <time>2013-07-21T11:17:21Z</time>
      </trkpt>
      <trkpt lat="45.62667" lon="0.34661">
        <ele>128.47</ele>
        <time>2013-07-21T11:17:30Z</time>
      </trkpt>
      <trkpt lat="45.62664" lon="0.34774">
        <ele>128.95</ele>
        <time>2013-07-21T11:17:45Z</time>
      </trkpt>
      <trkpt lat="45.6266" lon="0.34917">
        <ele>127.51</ele>
        <time>2013-07-21T11:18:00Z</time>
      </trkpt>
      <trkpt lat="45.62655" lon="0.35121">
        <ele>124.63</ele>
        <time>2013-07-21T11:18:18Z</time>
      </trkpt>
      <trkpt lat="45.62651" lon="0.35245">
        <ele>122.71</ele>
        <time>2013-07-21T11:18:28Z</time>
      </trkpt>
      <trkpt lat="45.62648" lon="0.35393">
        <ele>118.86</ele>
        <time>2013-07-21T11:18:39Z</time>
      </trkpt>
      <trkpt lat="45.62643" lon="0.35555">
        <ele>119.82</ele>
        <time>2013-07-21T11:18:53Z</time>
      </trkpt>
      <trkpt lat="45.62642" lon="0.35603">
        <ele>120.78</ele>
        <time>2013-07-21T11:18:59Z</time>
      </trkpt>
      <trkpt lat="45.6264" lon="0.35639">
        <ele>121.74</ele>
        <time>2013-07-21T11:19:04Z</time>
      </trkpt>
      <trkpt lat="45.62636" lon="0.35717">
        <ele>122.71</ele>
        <time>2013-07-21T11:19:15Z</time>
      </trkpt>
      <trkpt lat="45.62629" lon="0.35865">
        <ele>121.26</ele>
        <time>2013-07-21T11:19:30Z</time>
      </trkpt>
      <trkpt lat="45.62617" lon="0.36065">
        <ele>122.22</ele>
        <time>2013-07-21T11:19:49Z</time>
      </trkpt>
      <trkpt lat="45.62608" lon="0.36215">
        <ele>124.63</ele>
        <time>2013-07-21T11:20:07Z</time>
      </trkpt>
      <trkpt lat="45.62602" lon="0.36341">
        <ele>125.11</ele>
        <time>2013-07-21T11:20:24Z</time>
      </trkpt>
      <trkpt lat="45.62594" lon="0.36497">
        <ele>124.63</ele>
        <time>2013-07-21T11:20:40Z</time>
      </trkpt>
      <trkpt lat="45.62583" lon="0.3666">
        <ele>126.07</ele>
        <time>2013-07-21T11:20:58Z</time>
      </trkpt>
      <trkpt lat="45.6258" lon="0.3672">
        <ele>126.55</ele>
        <time>2013-07-21T11:21:05Z</time>
      </trkpt>
      <trkpt lat="45.62575" lon="0.36816">
        <ele>127.51</ele>
        <time>2013-07-21T11:21:18Z</time>
      </trkpt>
      <trkpt lat="45.62575" lon="0.36927">
        <ele>127.03</ele>
        <time>2013-07-21T11:21:32Z</time>
      </trkpt>
      <trkpt lat="45.62576" lon="0.36935">
        <ele>126.55</ele>
        <time>2013-07-21T11:21:33Z</time>
      </trkpt>
      <trkpt lat="45.62578" lon="0.36961">
        <ele>126.07</ele>
        <time>2013-07-21T11:21:36Z</time>
      </trkpt>
      <trkpt lat="45.62591" lon="0.37085">
        <ele>123.19</ele>
        <time>2013-07-21T11:21:48Z</time>
      </trkpt>
      <trkpt lat="45.626" lon="0.37163">
        <ele>119.82</ele>
        <time>2013-07-21T11:21:54Z</time>
      </trkpt>
      <trkpt lat="45.62602" lon="0.37178">
        <ele>119.82</ele>
        <time>2013-07-21T11:21:55Z</time>
      </trkpt>
      <trkpt lat="45.62609" lon="0.37237">
        <ele>117.42</ele>
        <time>2013-07-21T11:21:59Z</time>
      </trkpt>
      <trkpt lat="45.62615" lon="0.37301">
        <ele>114.05</ele>
        <time>2013-07-21T11:22:03Z</time>
      </trkpt>
      <trkpt lat="45.62622" lon="0.37366">
        <ele>110.69</ele>
        <time>2013-07-21T11:22:07Z</time>
      </trkpt>
      <trkpt lat="45.62624" lon="0.37383">
        <ele>110.21</ele>
        <time>2013-07-21T11:22:08Z</time>
      </trkpt>
      <trkpt lat="45.62628" lon="0.37416">
        <ele>109.25</ele>
        <time>2013-07-21T11:22:10Z</time>
      </trkpt>
      <trkpt lat="45.62637" lon="0.3749">
        <ele>110.69</ele>
        <time>2013-07-21T11:22:15Z</time>
      </trkpt>
      <trkpt lat="45.62648" lon="0.37592">
        <ele>113.09</ele>
        <time>2013-07-21T11:22:23Z</time>
      </trkpt>
      <trkpt lat="45.62659" lon="0.37695">
        <ele>115.5</ele>
        <time>2013-07-21T11:22:35Z</time>
      </trkpt>
      <trkpt lat="45.62659" lon="0.37702">
        <ele>115.98</ele>
        <time>2013-07-21T11:22:36Z</time>
      </trkpt>
      <trkpt lat="45.62654" lon="0.37805">
        <ele>118.86</ele>
        <time>2013-07-21T11:22:49Z</time>
      </trkpt>
      <trkpt lat="45.62648" lon="0.37841">
        <ele>116.94</ele>
        <time>2013-07-21T11:22:54Z</time>
      </trkpt>
      <trkpt lat="45.62625" lon="0.37924">
        <ele>116.94</ele>
        <time>2013-07-21T11:23:06Z</time>
      </trkpt>
      <trkpt lat="45.62605" lon="0.37992">
        <ele>114.53</ele>
        <time>2013-07-21T11:23:12Z</time>
      </trkpt>
      <trkpt lat="45.62566" lon="0.38126">
        <ele>115.98</ele>
        <time>2013-07-21T11:23:24Z</time>
      </trkpt>
      <trkpt lat="45.6254" lon="0.38218">
        <ele>117.42</ele>
        <time>2013-07-21T11:23:36Z</time>
      </trkpt>
      <trkpt lat="45.62511" lon="0.38319">
        <ele>113.57</ele>
        <time>2013-07-21T11:23:47Z</time>
      </trkpt>
      <trkpt lat="45.62481" lon="0.38421">
        <ele>110.21</ele>
        <time>2013-07-21T11:23:56Z</time>
      </trkpt>
      <trkpt lat="45.62444" lon="0.38533">
        <ele>106.84</ele>
        <time>2013-07-21T11:24:05Z</time>
      </trkpt>
      <trkpt lat="45.62405" lon="0.38615">
        <ele>103.48</ele>
        <time>2013-07-21T11:24:12Z</time>
      </trkpt>
      <trkpt lat="45.62334" lon="0.38762">
        <ele>100.11</ele>
        <time>2013-07-21T11:24:25Z</time>
      </trkpt>
      <trkpt lat="45.62301" lon="0.38904">
        <ele>100.6</ele>
        <time>2013-07-21T11:24:38Z</time>
      </trkpt>
      <trkpt lat="45.62268" lon="0.39063">
        <ele>100.6</ele>
        <time>2013-07-21T11:24:53Z</time>
      </trkpt>
      <trkpt lat="45.6224" lon="0.39204">
        <ele>100.11</ele>
        <time>2013-07-21T11:25:07Z</time>
      </trkpt>
      <trkpt lat="45.62211" lon="0.3935">
        <ele>99.63</ele>
        <time>2013-07-21T11:25:21Z</time>
      </trkpt>
      <trkpt lat="45.62192" lon="0.39513">
        <ele>102.04</ele>
        <time>2013-07-21T11:25:36Z</time>
      </trkpt>
      <trkpt lat="45.62191" lon="0.39523">
        <ele>101.56</ele>
        <time>2013-07-21T11:25:37Z</time>
      </trkpt>
      <trkpt lat="45.62178" lon="0.3967">
        <ele>100.11</ele>
        <time>2013-07-21T11:25:52Z</time>
      </trkpt>
      <trkpt lat="45.6216" lon="0.39854">
        <ele>99.63</ele>
        <time>2013-07-21T11:26:09Z</time>
      </trkpt>
      <trkpt lat="45.62151" lon="0.39926">
        <ele>99.63</ele>
        <time>2013-07-21T11:26:16Z</time>
      </trkpt>
      <trkpt lat="45.62109" lon="0.4006">
        <ele>100.6</ele>
        <time>2013-07-21T11:26:30Z</time>
      </trkpt>
      <trkpt lat="45.62105" lon="0.40089">
        <ele>101.08</ele>
        <time>2013-07-21T11:26:33Z</time>
      </trkpt>
      <trkpt lat="45.62109" lon="0.40257">
        <ele>101.56</ele>
        <time>2013-07-21T11:26:50Z</time>
      </trkpt>
      <trkpt lat="45.62077" lon="0.40393">
        <ele>102.04</ele>
        <time>2013-07-21T11:27:05Z</time>
      </trkpt>
      <trkpt lat="45.62021" lon="0.40567">
        <ele>100.6</ele>
        <time>2013-07-21T11:27:23Z</time>
      </trkpt>
      <trkpt lat="45.61968" lon="0.40736">
        <ele>101.08</ele>
        <time>2013-07-21T11:27:41Z</time>
      </trkpt>
      <trkpt lat="45.6191" lon="0.4091">
        <ele>101.08</ele>
        <time>2013-07-21T11:28:00Z</time>
      </trkpt>
      <trkpt lat="45.61851" lon="0.41044">
        <ele>101.08</ele>
        <time>2013-07-21T11:28:16Z</time>
      </trkpt>
      <trkpt lat="45.61774" lon="0.41182">
        <ele>101.08</ele>
        <time>2013-07-21T11:28:34Z</time>
      </trkpt>
      <trkpt lat="45.617" lon="0.41318">
        <ele>101.56</ele>
        <time>2013-07-21T11:28:51Z</time>
      </trkpt>
      <trkpt lat="45.61654" lon="0.41456">
        <ele>101.56</ele>
        <time>2013-07-21T11:29:06Z</time>
      </trkpt>
      <trkpt lat="45.61628" lon="0.41615">
        <ele>102.04</ele>
        <time>2013-07-21T11:29:22Z</time>
      </trkpt>
      <trkpt lat="45.61603" lon="0.41791">
        <ele>102.52</ele>
        <time>2013-07-21T11:29:40Z</time>
      </trkpt>
      <trkpt lat="45.61579" lon="0.41963">
        <ele>102.52</ele>
        <time>2013-07-21T11:29:58Z</time>
      </trkpt>
      <trkpt lat="45.61551" lon="0.42147">
        <ele>102.04</ele>
        <time>2013-07-21T11:30:17Z</time>
      </trkpt>
      <trkpt lat="45.61548" lon="0.42167">
        <ele>102.52</ele>
        <time>2013-07-21T11:30:19Z</time>
      </trkpt>
      <trkpt lat="45.61546" lon="0.42177">
        <ele>102.52</ele>
        <time>2013-07-21T11:30:20Z</time>
      </trkpt>
      <trkpt lat="45.61511" lon="0.42294">
        <ele>102.52</ele>
        <time>2013-07-21T11:30:33Z</time>
      </trkpt>
      <trkpt lat="45.61453" lon="0.4243">
        <ele>102.52</ele>
        <time>2013-07-21T11:30:49Z</time>
      </trkpt>
      <trkpt lat="45.61415" lon="0.42553">
        <ele>103.48</ele>
        <time>2013-07-21T11:31:03Z</time>
      </trkpt>
      <trkpt lat="45.61415" lon="0.42656">
        <ele>103</ele>
        <time>2013-07-21T11:31:14Z</time>
      </trkpt>
      <trkpt lat="45.61436" lon="0.42806">
        <ele>101.56</ele>
        <time>2013-07-21T11:31:30Z</time>
      </trkpt>
      <trkpt lat="45.61449" lon="0.4294">
        <ele>103</ele>
        <time>2013-07-21T11:31:45Z</time>
      </trkpt>
      <trkpt lat="45.61441" lon="0.43128">
        <ele>103.96</ele>
        <time>2013-07-21T11:32:05Z</time>
      </trkpt>
      <trkpt lat="45.61414" lon="0.43278">
        <ele>103.48</ele>
        <time>2013-07-21T11:32:22Z</time>
      </trkpt>
      <trkpt lat="45.61364" lon="0.43413">
        <ele>103.48</ele>
        <time>2013-07-21T11:32:38Z</time>
      </trkpt>
      <trkpt lat="45.61309" lon="0.43531">
        <ele>104.92</ele>
        <time>2013-07-21T11:32:54Z</time>
      </trkpt>
      <trkpt lat="45.6128" lon="0.43581">
        <ele>104.44</ele>
        <time>2013-07-21T11:33:03Z</time>
      </trkpt>
      <trkpt lat="45.61276" lon="0.43586">
        <ele>104.44</ele>
        <time>2013-07-21T11:33:04Z</time>
      </trkpt>
      <trkpt lat="45.61217" lon="0.4369">
        <ele>104.44</ele>
        <time>2013-07-21T11:33:19Z</time>
      </trkpt>
      <trkpt lat="45.61211" lon="0.43705">
        <ele>104.44</ele>
        <time>2013-07-21T11:33:21Z</time>
      </trkpt>
      <trkpt lat="45.61208" lon="0.43712">
        <ele>103.96</ele>
        <time>2013-07-21T11:33:22Z</time>
      </trkpt>
      <trkpt lat="45.61182" lon="0.43845">
        <ele>103.48</ele>
        <time>2013-07-21T11:33:38Z</time>
      </trkpt>
      <trkpt lat="45.61167" lon="0.43958">
        <ele>104.44</ele>
        <time>2013-07-21T11:33:51Z</time>
      </trkpt>
      <trkpt lat="45.61149" lon="0.44099">
        <ele>104.44</ele>
        <time>2013-07-21T11:34:08Z</time>
      </trkpt>
      <trkpt lat="45.61148" lon="0.44124">
        <ele>103.96</ele>
        <time>2013-07-21T11:34:11Z</time>
      </trkpt>
      <trkpt lat="45.61156" lon="0.44207">
        <ele>103.96</ele>
        <time>2013-07-21T11:34:22Z</time>
      </trkpt>
      <trkpt lat="45.61159" lon="0.44223">
        <ele>103.96</ele>
        <time>2013-07-21T11:34:24Z</time>
      </trkpt>
      <trkpt lat="45.61161" lon="0.44229">
        <ele>103.96</ele>
        <time>2013-07-21T11:34:25Z</time>
      </trkpt>
      <trkpt lat="45.61192" lon="0.44327">
        <ele>105.88</ele>
        <time>2013-07-21T11:34:40Z</time>
      </trkpt>
      <trkpt lat="45.61195" lon="0.44331">
        <ele>105.88</ele>
        <time>2013-07-21T11:34:41Z</time>
      </trkpt>
      <trkpt lat="45.61233" lon="0.44374">
        <ele>105.88</ele>
        <time>2013-07-21T11:34:54Z</time>
      </trkpt>
      <trkpt lat="45.61237" lon="0.44378">
        <ele>105.4</ele>
        <time>2013-07-21T11:34:55Z</time>
      </trkpt>
      <trkpt lat="45.61239" lon="0.44384">
        <ele>104.92</ele>
        <time>2013-07-21T11:34:56Z</time>
      </trkpt>
      <trkpt lat="45.61241" lon="0.4439">
        <ele>104.92</ele>
        <time>2013-07-21T11:34:57Z</time>
      </trkpt>
      <trkpt lat="45.61242" lon="0.44397">
        <ele>104.92</ele>
        <time>2013-07-21T11:34:58Z</time>
      </trkpt>
      <trkpt lat="45.61242" lon="0.44403">
        <ele>104.92</ele>
        <time>2013-07-21T11:34:59Z</time>
      </trkpt>
      <trkpt lat="45.61237" lon="0.4449">
        <ele>106.84</ele>
        <time>2013-07-21T11:35:13Z</time>
      </trkpt>
      <trkpt lat="45.61233" lon="0.44569">
        <ele>109.25</ele>
        <time>2013-07-21T11:35:27Z</time>
      </trkpt>
      <trkpt lat="45.61224" lon="0.44671">
        <ele>112.13</ele>
        <time>2013-07-21T11:35:45Z</time>
      </trkpt>
      <trkpt lat="45.61217" lon="0.4475">
        <ele>115.01</ele>
        <time>2013-07-21T11:36:01Z</time>
      </trkpt>
      <trkpt lat="45.61209" lon="0.4483">
        <ele>116.94</ele>
        <time>2013-07-21T11:36:16Z</time>
      </trkpt>
      <trkpt lat="45.61204" lon="0.44865">
        <ele>117.9</ele>
        <time>2013-07-21T11:36:22Z</time>
      </trkpt>
      <trkpt lat="45.61172" lon="0.44925">
        <ele>121.26</ele>
        <time>2013-07-21T11:36:36Z</time>
      </trkpt>
      <trkpt lat="45.61139" lon="0.44976">
        <ele>124.63</ele>
        <time>2013-07-21T11:36:50Z</time>
      </trkpt>
      <trkpt lat="45.61115" lon="0.45061">
        <ele>127.51</ele>
        <time>2013-07-21T11:37:07Z</time>
      </trkpt>
      <trkpt lat="45.61108" lon="0.45092">
        <ele>128.47</ele>
        <time>2013-07-21T11:37:13Z</time>
      </trkpt>
      <trkpt lat="45.61087" lon="0.45175">
        <ele>127.99</ele>
        <time>2013-07-21T11:37:26Z</time>
      </trkpt>
      <trkpt lat="45.61039" lon="0.45314">
        <ele>128.95</ele>
        <time>2013-07-21T11:37:44Z</time>
      </trkpt>
      <trkpt lat="45.6098" lon="0.45477">
        <ele>129.92</ele>
        <time>2013-07-21T11:38:05Z</time>
      </trkpt>
      <trkpt lat="45.60943" lon="0.45618">
        <ele>131.84</ele>
        <time>2013-07-21T11:38:23Z</time>
      </trkpt>
      <trkpt lat="45.60939" lon="0.45641">
        <ele>132.32</ele>
        <time>2013-07-21T11:38:26Z</time>
      </trkpt>
      <trkpt lat="45.60921" lon="0.45747">
        <ele>131.36</ele>
        <time>2013-07-21T11:38:41Z</time>
      </trkpt>
      <trkpt lat="45.60905" lon="0.45849">
        <ele>127.99</ele>
        <time>2013-07-21T11:38:52Z</time>
      </trkpt>
      <trkpt lat="45.60906" lon="0.45929">
        <ele>125.59</ele>
        <time>2013-07-21T11:38:59Z</time>
      </trkpt>
      <trkpt lat="45.60916" lon="0.4608">
        <ele>121.74</ele>
        <time>2013-07-21T11:39:11Z</time>
      </trkpt>
      <trkpt lat="45.60918" lon="0.46106">
        <ele>120.78</ele>
        <time>2013-07-21T11:39:13Z</time>
      </trkpt>
      <trkpt lat="45.60924" lon="0.46185">
        <ele>118.86</ele>
        <time>2013-07-21T11:39:19Z</time>
      </trkpt>
      <trkpt lat="45.60925" lon="0.46198">
        <ele>118.86</ele>
        <time>2013-07-21T11:39:20Z</time>
      </trkpt>
      <trkpt lat="45.60936" lon="0.46264">
        <ele>116.46</ele>
        <time>2013-07-21T11:39:25Z</time>
      </trkpt>
      <trkpt lat="45.60967" lon="0.46431">
        <ele>113.57</ele>
        <time>2013-07-21T11:39:39Z</time>
      </trkpt>
      <trkpt lat="45.60994" lon="0.4653">
        <ele>112.13</ele>
        <time>2013-07-21T11:39:48Z</time>
      </trkpt>
      <trkpt lat="45.61024" lon="0.46631">
        <ele>111.17</ele>
        <time>2013-07-21T11:39:58Z</time>
      </trkpt>
      <trkpt lat="45.61026" lon="0.46642">
        <ele>110.69</ele>
        <time>2013-07-21T11:39:59Z</time>
      </trkpt>
      <trkpt lat="45.61026" lon="0.46653">
        <ele>110.21</ele>
        <time>2013-07-21T11:40:00Z</time>
      </trkpt>
      <trkpt lat="45.61026" lon="0.46665">
        <ele>110.21</ele>
        <time>2013-07-21T11:40:01Z</time>
      </trkpt>
      <trkpt lat="45.61025" lon="0.46677">
        <ele>109.73</ele>
        <time>2013-07-21T11:40:02Z</time>
      </trkpt>
      <trkpt lat="45.61022" lon="0.46688">
        <ele>109.73</ele>
        <time>2013-07-21T11:40:03Z</time>
      </trkpt>
      <trkpt lat="45.61017" lon="0.46698">
        <ele>109.73</ele>
        <time>2013-07-21T11:40:04Z</time>
      </trkpt>
      <trkpt lat="45.61012" lon="0.46707">
        <ele>109.25</ele>
        <time>2013-07-21T11:40:05Z</time>
      </trkpt>
      <trkpt lat="45.61005" lon="0.46715">
        <ele>109.25</ele>
        <time>2013-07-21T11:40:06Z</time>
      </trkpt>
      <trkpt lat="45.60999" lon="0.46721">
        <ele>109.25</ele>
        <time>2013-07-21T11:40:07Z</time>
      </trkpt>
      <trkpt lat="45.60992" lon="0.46727">
        <ele>109.25</ele>
        <time>2013-07-21T11:40:08Z</time>
      </trkpt>
      <trkpt lat="45.60984" lon="0.46731">
        <ele>108.77</ele>
        <time>2013-07-21T11:40:09Z</time>
      </trkpt>
      <trkpt lat="45.6089" lon="0.46781">
        <ele>109.73</ele>
        <time>2013-07-21T11:40:23Z</time>
      </trkpt>
      <trkpt lat="45.60879" lon="0.46787">
        <ele>109.73</ele>
        <time>2013-07-21T11:40:25Z</time>
      </trkpt>
      <trkpt lat="45.60875" lon="0.46791">
        <ele>109.25</ele>
        <time>2013-07-21T11:40:26Z</time>
      </trkpt>
      <trkpt lat="45.6087" lon="0.46795">
        <ele>109.25</ele>
        <time>2013-07-21T11:40:27Z</time>
      </trkpt>
      <trkpt lat="45.60862" lon="0.46802">
        <ele>109.25</ele>
        <time>2013-07-21T11:40:29Z</time>
      </trkpt>
      <trkpt lat="45.60859" lon="0.46806">
        <ele>109.25</ele>
        <time>2013-07-21T11:40:30Z</time>
      </trkpt>
      <trkpt lat="45.60856" lon="0.4681">
        <ele>109.25</ele>
        <time>2013-07-21T11:40:31Z</time>
      </trkpt>
      <trkpt lat="45.60854" lon="0.46814">
        <ele>108.77</ele>
        <time>2013-07-21T11:40:32Z</time>
      </trkpt>
      <trkpt lat="45.60853" lon="0.46817">
        <ele>108.77</ele>
        <time>2013-07-21T11:40:33Z</time>
      </trkpt>
      <trkpt lat="45.60852" lon="0.4682">
        <ele>108.77</ele>
        <time>2013-07-21T11:40:34Z</time>
      </trkpt>
      <trkpt lat="45.60852" lon="0.46824">
        <ele>108.77</ele>
        <time>2013-07-21T11:40:35Z</time>
      </trkpt>
      <trkpt lat="45.60851" lon="0.46827">
        <ele>108.29</ele>
        <time>2013-07-21T11:40:36Z</time>
      </trkpt>
      <trkpt lat="45.60852" lon="0.4683">
        <ele>107.81</ele>
        <time>2013-07-21T11:40:37Z</time>
      </trkpt>
      <trkpt lat="45.60854" lon="0.46831">
        <ele>107.32</ele>
        <time>2013-07-21T11:40:38Z</time>
      </trkpt>
      <trkpt lat="45.60855" lon="0.46831">
        <ele>106.84</ele>
        <time>2013-07-21T11:40:39Z</time>
      </trkpt>
      <trkpt lat="45.60857" lon="0.46832">
        <ele>106.84</ele>
        <time>2013-07-21T11:40:40Z</time>
      </trkpt>
      <trkpt lat="45.60859" lon="0.46833">
        <ele>106.84</ele>
        <time>2013-07-21T11:40:41Z</time>
      </trkpt>
      <trkpt lat="45.6086" lon="0.46835">
        <ele>106.84</ele>
        <time>2013-07-21T11:40:42Z</time>
      </trkpt>
      <trkpt lat="45.60862" lon="0.46837">
        <ele>106.36</ele>
        <time>2013-07-21T11:40:43Z</time>
      </trkpt>
      <trkpt lat="45.60891" lon="0.46885">
        <ele>106.84</ele>
        <time>2013-07-21T11:40:57Z</time>
      </trkpt>
      <trkpt lat="45.60894" lon="0.46896">
        <ele>106.84</ele>
        <time>2013-07-21T11:41:07Z</time>
      </trkpt>
      <trkpt lat="45.60897" lon="0.46895">
        <ele>106.84</ele>
        <time>2013-07-21T11:41:29Z</time>
      </trkpt>
      <trkpt lat="45.60899" lon="0.46895">
        <ele>106.36</ele>
        <time>2013-07-21T11:41:56Z</time>
      </trkpt>
      <trkpt lat="45.60899" lon="0.46896">
        <ele>106.36</ele>
        <time>2013-07-21T11:42:25Z</time>
      </trkpt>
      <trkpt lat="45.60899" lon="0.46896">
        <ele>106.84</ele>
        <time>2013-07-21T11:42:54Z</time>
      </trkpt>
      <trkpt lat="45.609" lon="0.46895">
        <ele>106.84</ele>
        <time>2013-07-21T11:43:21Z</time>
      </trkpt>
      <trkpt lat="45.609" lon="0.46895">
        <ele>106.84</ele>
        <time>2013-07-21T11:43:53Z</time>
      </trkpt>
      <trkpt lat="45.60901" lon="0.46894">
        <ele>107.32</ele>
        <time>2013-07-21T11:44:22Z</time>
      </trkpt>
      <trkpt lat="45.60901" lon="0.46891">
        <ele>106.84</ele>
        <time>2013-07-21T11:44:31Z</time>
      </trkpt>
      <trkpt lat="45.60899" lon="0.46889">
        <ele>106.84</ele>
        <time>2013-07-21T11:44:33Z</time>
      </trkpt>
      <trkpt lat="45.60896" lon="0.46885">
        <ele>106.84</ele>
        <time>2013-07-21T11:44:36Z</time>
      </trkpt>
      <trkpt lat="45.60895" lon="0.46884">
        <ele>106.84</ele>
        <time>2013-07-21T11:44:37Z</time>
      </trkpt>
      <trkpt lat="45.60894" lon="0.46882">
        <ele>107.32</ele>
        <time>2013-07-21T11:44:38Z</time>
      </trkpt>
      <trkpt lat="45.60882" lon="0.46864">
        <ele>107.32</ele>
        <time>2013-07-21T11:44:52Z</time>
      </trkpt>
      <trkpt lat="45.60857" lon="0.46857">
        <ele>106.84</ele>
        <time>2013-07-21T11:45:13Z</time>
      </trkpt>
      <trkpt lat="45.60838" lon="0.46853">
        <ele>106.84</ele>
        <time>2013-07-21T11:45:32Z</time>
      </trkpt>
      <trkpt lat="45.60836" lon="0.46854">
        <ele>107.32</ele>
        <time>2013-07-21T11:45:35Z</time>
      </trkpt>
      <trkpt lat="45.60832" lon="0.46857">
        <ele>106.84</ele>
        <time>2013-07-21T11:45:38Z</time>
      </trkpt>
      <trkpt lat="45.6083" lon="0.46859">
        <ele>107.32</ele>
        <time>2013-07-21T11:45:39Z</time>
      </trkpt>
      <trkpt lat="45.60828" lon="0.46861">
        <ele>107.81</ele>
        <time>2013-07-21T11:45:40Z</time>
      </trkpt>
      <trkpt lat="45.60808" lon="0.46884">
        <ele>107.81</ele>
        <time>2013-07-21T11:45:48Z</time>
      </trkpt>
      <trkpt lat="45.60785" lon="0.46913">
        <ele>107.81</ele>
        <time>2013-07-21T11:45:55Z</time>
      </trkpt>
      <trkpt lat="45.60782" lon="0.46918">
        <ele>108.29</ele>
        <time>2013-07-21T11:45:56Z</time>
      </trkpt>
      <trkpt lat="45.60779" lon="0.46924">
        <ele>108.29</ele>
        <time>2013-07-21T11:45:57Z</time>
      </trkpt>
      <trkpt lat="45.60777" lon="0.4693">
        <ele>108.29</ele>
        <time>2013-07-21T11:45:58Z</time>
      </trkpt>
      <trkpt lat="45.60776" lon="0.46936">
        <ele>108.29</ele>
        <time>2013-07-21T11:45:59Z</time>
      </trkpt>
      <trkpt lat="45.60768" lon="0.46959">
        <ele>107.81</ele>
        <time>2013-07-21T11:46:03Z</time>
      </trkpt>
      <trkpt lat="45.60767" lon="0.46965">
        <ele>107.81</ele>
        <time>2013-07-21T11:46:04Z</time>
      </trkpt>
      <trkpt lat="45.60767" lon="0.46972">
        <ele>108.29</ele>
        <time>2013-07-21T11:46:05Z</time>
      </trkpt>
      <trkpt lat="45.60765" lon="0.46984">
        <ele>107.81</ele>
        <time>2013-07-21T11:46:07Z</time>
      </trkpt>
      <trkpt lat="45.60764" lon="0.4699">
        <ele>107.81</ele>
        <time>2013-07-21T11:46:08Z</time>
      </trkpt>
      <trkpt lat="45.60761" lon="0.46994">
        <ele>108.29</ele>
        <time>2013-07-21T11:46:09Z</time>
      </trkpt>
      <trkpt lat="45.60757" lon="0.46998">
        <ele>108.29</ele>
        <time>2013-07-21T11:46:10Z</time>
      </trkpt>
      <trkpt lat="45.60754" lon="0.47">
        <ele>108.29</ele>
        <time>2013-07-21T11:46:11Z</time>
      </trkpt>
      <trkpt lat="45.60751" lon="0.47">
        <ele>108.29</ele>
        <time>2013-07-21T11:46:12Z</time>
      </trkpt>
      <trkpt lat="45.60749" lon="0.47001">
        <ele>108.29</ele>
        <time>2013-07-21T11:46:13Z</time>
      </trkpt>
      <trkpt lat="45.60748" lon="0.47002">
        <ele>108.29</ele>
        <time>2013-07-21T11:46:14Z</time>
      </trkpt>
      <trkpt lat="45.60746" lon="0.47004">
        <ele>108.29</ele>
        <time>2013-07-21T11:46:15Z</time>
      </trkpt>
      <trkpt lat="45.60739" lon="0.47052">
        <ele>108.77</ele>
        <time>2013-07-21T11:46:25Z</time>
      </trkpt>
      <trkpt lat="45.60725" lon="0.47172">
        <ele>109.25</ele>
        <time>2013-07-21T11:46:42Z</time>
      </trkpt>
      <trkpt lat="45.60722" lon="0.47187">
        <ele>109.25</ele>
        <time>2013-07-21T11:46:44Z</time>
      </trkpt>
      <trkpt lat="45.60732" lon="0.47295">
        <ele>110.69</ele>
        <time>2013-07-21T11:46:58Z</time>
      </trkpt>
      <trkpt lat="45.6076" lon="0.47432">
        <ele>110.21</ele>
        <time>2013-07-21T11:47:13Z</time>
      </trkpt>
      <trkpt lat="45.60777" lon="0.47535">
        <ele>110.21</ele>
        <time>2013-07-21T11:47:24Z</time>
      </trkpt>
      <trkpt lat="45.60776" lon="0.47545">
        <ele>110.69</ele>
        <time>2013-07-21T11:47:25Z</time>
      </trkpt>
      <trkpt lat="45.60775" lon="0.47555">
        <ele>110.21</ele>
        <time>2013-07-21T11:47:26Z</time>
      </trkpt>
      <trkpt lat="45.60773" lon="0.47564">
        <ele>110.69</ele>
        <time>2013-07-21T11:47:27Z</time>
      </trkpt>
      <trkpt lat="45.60771" lon="0.47573">
        <ele>110.69</ele>
        <time>2013-07-21T11:47:28Z</time>
      </trkpt>
      <trkpt lat="45.60768" lon="0.47581">
        <ele>110.69</ele>
        <time>2013-07-21T11:47:29Z</time>
      </trkpt>
      <trkpt lat="45.60764" lon="0.47589">
        <ele>111.17</ele>
        <time>2013-07-21T11:47:30Z</time>
      </trkpt>
      <trkpt lat="45.6076" lon="0.47597">
        <ele>112.13</ele>
        <time>2013-07-21T11:47:31Z</time>
      </trkpt>
      <trkpt lat="45.60756" lon="0.47604">
        <ele>112.13</ele>
        <time>2013-07-21T11:47:32Z</time>
      </trkpt>
      <trkpt lat="45.60731" lon="0.47641">
        <ele>111.65</ele>
        <time>2013-07-21T11:47:38Z</time>
      </trkpt>
      <trkpt lat="45.60714" lon="0.47676">
        <ele>112.13</ele>
        <time>2013-07-21T11:47:43Z</time>
      </trkpt>
      <trkpt lat="45.60675" lon="0.4779">
        <ele>112.13</ele>
        <time>2013-07-21T11:47:57Z</time>
      </trkpt>
      <trkpt lat="45.60631" lon="0.47941">
        <ele>111.65</ele>
        <time>2013-07-21T11:48:14Z</time>
      </trkpt>
      <trkpt lat="45.60592" lon="0.4807">
        <ele>112.61</ele>
        <time>2013-07-21T11:48:29Z</time>
      </trkpt>
      <trkpt lat="45.6059" lon="0.48079">
        <ele>112.61</ele>
        <time>2013-07-21T11:48:30Z</time>
      </trkpt>
      <trkpt lat="45.60578" lon="0.48141">
        <ele>111.65</ele>
        <time>2013-07-21T11:48:37Z</time>
      </trkpt>
      <trkpt lat="45.60574" lon="0.48165">
        <ele>111.65</ele>
        <time>2013-07-21T11:48:40Z</time>
      </trkpt>
      <trkpt lat="45.60573" lon="0.48173">
        <ele>112.13</ele>
        <time>2013-07-21T11:48:41Z</time>
      </trkpt>
      <trkpt lat="45.6057" lon="0.48195">
        <ele>112.13</ele>
        <time>2013-07-21T11:48:44Z</time>
      </trkpt>
      <trkpt lat="45.60555" lon="0.483">
        <ele>111.17</ele>
        <time>2013-07-21T11:48:57Z</time>
      </trkpt>
      <trkpt lat="45.60519" lon="0.48443">
        <ele>110.69</ele>
        <time>2013-07-21T11:49:13Z</time>
      </trkpt>
      <trkpt lat="45.60486" lon="0.4857">
        <ele>112.13</ele>
        <time>2013-07-21T11:49:28Z</time>
      </trkpt>
      <trkpt lat="45.6044" lon="0.48746">
        <ele>111.65</ele>
        <time>2013-07-21T11:49:48Z</time>
      </trkpt>
      <trkpt lat="45.60401" lon="0.48899">
        <ele>112.61</ele>
        <time>2013-07-21T11:50:06Z</time>
      </trkpt>
      <trkpt lat="45.60361" lon="0.49048">
        <ele>113.57</ele>
        <time>2013-07-21T11:50:24Z</time>
      </trkpt>
      <trkpt lat="45.60313" lon="0.49187">
        <ele>112.61</ele>
        <time>2013-07-21T11:50:42Z</time>
      </trkpt>
      <trkpt lat="45.60258" lon="0.49276">
        <ele>113.09</ele>
        <time>2013-07-21T11:50:55Z</time>
      </trkpt>
      <trkpt lat="45.60201" lon="0.49371">
        <ele>114.53</ele>
        <time>2013-07-21T11:51:10Z</time>
      </trkpt>
      <trkpt lat="45.60149" lon="0.49484">
        <ele>115.98</ele>
        <time>2013-07-21T11:51:27Z</time>
      </trkpt>
      <trkpt lat="45.60113" lon="0.49603">
        <ele>115.01</ele>
        <time>2013-07-21T11:51:41Z</time>
      </trkpt>
      <trkpt lat="45.60074" lon="0.49736">
        <ele>116.46</ele>
        <time>2013-07-21T11:51:57Z</time>
      </trkpt>
      <trkpt lat="45.60033" lon="0.49877">
        <ele>116.94</ele>
        <time>2013-07-21T11:52:13Z</time>
      </trkpt>
      <trkpt lat="45.59981" lon="0.50017">
        <ele>118.38</ele>
        <time>2013-07-21T11:52:30Z</time>
      </trkpt>
      <trkpt lat="45.59927" lon="0.50162">
        <ele>119.34</ele>
        <time>2013-07-21T11:52:49Z</time>
      </trkpt>
      <trkpt lat="45.59868" lon="0.50321">
        <ele>119.34</ele>
        <time>2013-07-21T11:53:09Z</time>
      </trkpt>
      <trkpt lat="45.59815" lon="0.50464">
        <ele>118.86</ele>
        <time>2013-07-21T11:53:26Z</time>
      </trkpt>
      <trkpt lat="45.59759" lon="0.50613">
        <ele>118.86</ele>
        <time>2013-07-21T11:53:44Z</time>
      </trkpt>
      <trkpt lat="45.59711" lon="0.50741">
        <ele>118.86</ele>
        <time>2013-07-21T11:54:00Z</time>
      </trkpt>
      <trkpt lat="45.5965" lon="0.50893">
        <ele>119.82</ele>
        <time>2013-07-21T11:54:20Z</time>
      </trkpt>
      <trkpt lat="45.59576" lon="0.51005">
        <ele>119.34</ele>
        <time>2013-07-21T11:54:37Z</time>
      </trkpt>
      <trkpt lat="45.59495" lon="0.51112">
        <ele>118.38</ele>
        <time>2013-07-21T11:54:53Z</time>
      </trkpt>
      <trkpt lat="45.59414" lon="0.51219">
        <ele>119.34</ele>
        <time>2013-07-21T11:55:09Z</time>
      </trkpt>
      <trkpt lat="45.59326" lon="0.5134">
        <ele>119.34</ele>
        <time>2013-07-21T11:55:27Z</time>
      </trkpt>
      <trkpt lat="45.59243" lon="0.51452">
        <ele>118.86</ele>
        <time>2013-07-21T11:55:43Z</time>
      </trkpt>
      <trkpt lat="45.59145" lon="0.51583">
        <ele>118.86</ele>
        <time>2013-07-21T11:56:02Z</time>
      </trkpt>
      <trkpt lat="45.59035" lon="0.51732">
        <ele>117.9</ele>
        <time>2013-07-21T11:56:23Z</time>
      </trkpt>
      <trkpt lat="45.58963" lon="0.51832">
        <ele>118.38</ele>
        <time>2013-07-21T11:56:37Z</time>
      </trkpt>
      <trkpt lat="45.58945" lon="0.51864">
        <ele>118.38</ele>
        <time>2013-07-21T11:56:41Z</time>
      </trkpt>
      <trkpt lat="45.58941" lon="0.51872">
        <ele>118.38</ele>
        <time>2013-07-21T11:56:42Z</time>
      </trkpt>
      <trkpt lat="45.58938" lon="0.51881">
        <ele>118.38</ele>
        <time>2013-07-21T11:56:43Z</time>
      </trkpt>
      <trkpt lat="45.58935" lon="0.5189">
        <ele>118.38</ele>
        <time>2013-07-21T11:56:44Z</time>
      </trkpt>
      <trkpt lat="45.58933" lon="0.51899">
        <ele>117.9</ele>
        <time>2013-07-21T11:56:45Z</time>
      </trkpt>
      <trkpt lat="45.58921" lon="0.52029">
        <ele>117.42</ele>
        <time>2013-07-21T11:56:58Z</time>
      </trkpt>
      <trkpt lat="45.58922" lon="0.52227">
        <ele>116.94</ele>
        <time>2013-07-21T11:57:17Z</time>
      </trkpt>
      <trkpt lat="45.58918" lon="0.52257">
        <ele>116.94</ele>
        <time>2013-07-21T11:57:20Z</time>
      </trkpt>
      <trkpt lat="45.58885" lon="0.52385">
        <ele>117.42</ele>
        <time>2013-07-21T11:57:34Z</time>
      </trkpt>
      <trkpt lat="45.58844" lon="0.52512">
        <ele>117.42</ele>
        <time>2013-07-21T11:57:49Z</time>
      </trkpt>
      <trkpt lat="45.58796" lon="0.5265">
        <ele>118.38</ele>
        <time>2013-07-21T11:58:05Z</time>
      </trkpt>
      <trkpt lat="45.58729" lon="0.52744">
        <ele>118.86</ele>
        <time>2013-07-21T11:58:19Z</time>
      </trkpt>
      <trkpt lat="45.58644" lon="0.52838">
        <ele>118.86</ele>
        <time>2013-07-21T11:58:35Z</time>
      </trkpt>
      <trkpt lat="45.58568" lon="0.52947">
        <ele>118.38</ele>
        <time>2013-07-21T11:58:51Z</time>
      </trkpt>
      <trkpt lat="45.5851" lon="0.53093">
        <ele>117.9</ele>
        <time>2013-07-21T11:59:08Z</time>
      </trkpt>
      <trkpt lat="45.58451" lon="0.53236">
        <ele>118.38</ele>
        <time>2013-07-21T11:59:25Z</time>
      </trkpt>
      <trkpt lat="45.58422" lon="0.53313">
        <ele>119.34</ele>
        <time>2013-07-21T11:59:34Z</time>
      </trkpt>
      <trkpt lat="45.5842" lon="0.53323">
        <ele>119.82</ele>
        <time>2013-07-21T11:59:35Z</time>
      </trkpt>
      <trkpt lat="45.58407" lon="0.5348">
        <ele>117.9</ele>
        <time>2013-07-21T11:59:50Z</time>
      </trkpt>
      <trkpt lat="45.58374" lon="0.53665">
        <ele>118.38</ele>
        <time>2013-07-21T12:00:07Z</time>
      </trkpt>
      <trkpt lat="45.58318" lon="0.53867">
        <ele>119.34</ele>
        <time>2013-07-21T12:00:28Z</time>
      </trkpt>
      <trkpt lat="45.58274" lon="0.54021">
        <ele>119.82</ele>
        <time>2013-07-21T12:00:45Z</time>
      </trkpt>
      <trkpt lat="45.58255" lon="0.54077">
        <ele>119.82</ele>
        <time>2013-07-21T12:00:51Z</time>
      </trkpt>
      <trkpt lat="45.58222" lon="0.54133">
        <ele>119.82</ele>
        <time>2013-07-21T12:00:58Z</time>
      </trkpt>
      <trkpt lat="45.58131" lon="0.54205">
        <ele>119.34</ele>
        <time>2013-07-21T12:01:12Z</time>
      </trkpt>
      <trkpt lat="45.5801" lon="0.54275">
        <ele>119.82</ele>
        <time>2013-07-21T12:01:30Z</time>
      </trkpt>
      <trkpt lat="45.57985" lon="0.54293">
        <ele>119.34</ele>
        <time>2013-07-21T12:01:34Z</time>
      </trkpt>
      <trkpt lat="45.57908" lon="0.54387">
        <ele>118.86</ele>
        <time>2013-07-21T12:01:48Z</time>
      </trkpt>
      <trkpt lat="45.57798" lon="0.54535">
        <ele>119.34</ele>
        <time>2013-07-21T12:02:08Z</time>
      </trkpt>
      <trkpt lat="45.57742" lon="0.54625">
        <ele>119.34</ele>
        <time>2013-07-21T12:02:19Z</time>
      </trkpt>
      <trkpt lat="45.57738" lon="0.54634">
        <ele>119.34</ele>
        <time>2013-07-21T12:02:20Z</time>
      </trkpt>
      <trkpt lat="45.57709" lon="0.54772">
        <ele>119.34</ele>
        <time>2013-07-21T12:02:33Z</time>
      </trkpt>
      <trkpt lat="45.57677" lon="0.54924">
        <ele>118.86</ele>
        <time>2013-07-21T12:02:48Z</time>
      </trkpt>
      <trkpt lat="45.57624" lon="0.55061">
        <ele>121.74</ele>
        <time>2013-07-21T12:03:04Z</time>
      </trkpt>
      <trkpt lat="45.57576" lon="0.55177">
        <ele>123.19</ele>
        <time>2013-07-21T12:03:19Z</time>
      </trkpt>
      <trkpt lat="45.57529" lon="0.55288">
        <ele>124.15</ele>
        <time>2013-07-21T12:03:34Z</time>
      </trkpt>
      <trkpt lat="45.57464" lon="0.55389">
        <ele>123.19</ele>
        <time>2013-07-21T12:03:49Z</time>
      </trkpt>
      <trkpt lat="45.57372" lon="0.55489">
        <ele>121.74</ele>
        <time>2013-07-21T12:04:06Z</time>
      </trkpt>
      <trkpt lat="45.57295" lon="0.55569">
        <ele>122.22</ele>
        <time>2013-07-21T12:04:21Z</time>
      </trkpt>
      <trkpt lat="45.57222" lon="0.55681">
        <ele>122.22</ele>
        <time>2013-07-21T12:04:37Z</time>
      </trkpt>
      <trkpt lat="45.57174" lon="0.55751">
        <ele>120.78</ele>
        <time>2013-07-21T12:04:48Z</time>
      </trkpt>
      <trkpt lat="45.57083" lon="0.55827">
        <ele>121.26</ele>
        <time>2013-07-21T12:05:04Z</time>
      </trkpt>
      <trkpt lat="45.57019" lon="0.55903">
        <ele>119.82</ele>
        <time>2013-07-21T12:05:19Z</time>
      </trkpt>
      <trkpt lat="45.56991" lon="0.55942">
        <ele>119.34</ele>
        <time>2013-07-21T12:05:30Z</time>
      </trkpt>
      <trkpt lat="45.56991" lon="0.55946">
        <ele>119.82</ele>
        <time>2013-07-21T12:05:31Z</time>
      </trkpt>
      <trkpt lat="45.56992" lon="0.55949">
        <ele>119.82</ele>
        <time>2013-07-21T12:05:32Z</time>
      </trkpt>
      <trkpt lat="45.56994" lon="0.55951">
        <ele>119.82</ele>
        <time>2013-07-21T12:05:33Z</time>
      </trkpt>
      <trkpt lat="45.56996" lon="0.55952">
        <ele>119.34</ele>
        <time>2013-07-21T12:05:34Z</time>
      </trkpt>
      <trkpt lat="45.56998" lon="0.55951">
        <ele>119.34</ele>
        <time>2013-07-21T12:05:35Z</time>
      </trkpt>
      <trkpt lat="45.56999" lon="0.55949">
        <ele>119.82</ele>
        <time>2013-07-21T12:05:36Z</time>
      </trkpt>
      <trkpt lat="45.57006" lon="0.55943">
        <ele>119.82</ele>
        <time>2013-07-21T12:05:49Z</time>
      </trkpt>
    </trkseg>
  </trk>
</gpx>